<?xml version="1.0" encoding="UTF-8" standalone="no" ?>
<gpx xmlns="http://www.topografix.com/GPX/1/1" xmlns:xsi="http://www.w3.org/2001/XMLSchema-instance" xsi:schemaLocation="http://www.topografix.com/GPX/1/1 http://www.topografix.com/GPX/1/1/gpx.xsd" version="1.1" creator="VisuGPX - https://www.visugpx.com">
  <metadata>
    <name>De Saugues a Chanaleilles</name>
    <desc><![CDATA[Trace AlpineQuest 08/09/2012, 08:40:10]]></desc>
  </metadata>
  <wpt lat="44.9572" lon="3.5494">
    <ele>1006</ele>
    <name><![CDATA[gite martins]]></name>
  </wpt>
  <wpt lat="44.9437" lon="3.52805">
    <ele>1035</ele>
    <name><![CDATA[jour 3]]></name>
  </wpt>
  <trk>
    <name><![CDATA[Saugues vers Chanaleilles]]></name>
    <trkseg>
      <trkpt lat="44.95726" lon="3.54939">
        <ele>1014</ele>
        <time>2012-09-08T06:40:10Z</time>
      </trkpt>
      <trkpt lat="44.9572" lon="3.5494">
        <ele>1006</ele>
        <time>2012-09-08T06:40:21Z</time>
      </trkpt>
      <trkpt lat="44.95712" lon="3.54946">
        <ele>1005</ele>
        <time>2012-09-08T06:40:48Z</time>
      </trkpt>
      <trkpt lat="44.95699" lon="3.54964">
        <ele>1017</ele>
        <time>2012-09-08T06:41:01Z</time>
      </trkpt>
      <trkpt lat="44.95696" lon="3.54963">
        <ele>1021</ele>
        <time>2012-09-08T06:41:11Z</time>
      </trkpt>
      <trkpt lat="44.95697" lon="3.5496">
        <ele>1022</ele>
        <time>2012-09-08T06:41:26Z</time>
      </trkpt>
      <trkpt lat="44.957" lon="3.54957">
        <ele>1027</ele>
        <time>2012-09-08T06:41:37Z</time>
      </trkpt>
      <trkpt lat="44.95704" lon="3.54936">
        <ele>1033</ele>
        <time>2012-09-08T06:43:58Z</time>
      </trkpt>
      <trkpt lat="44.95723" lon="3.54936">
        <ele>1036</ele>
        <time>2012-09-08T06:44:10Z</time>
      </trkpt>
      <trkpt lat="44.95726" lon="3.5494">
        <ele>1032</ele>
        <time>2012-09-08T06:44:28Z</time>
      </trkpt>
      <trkpt lat="44.95728" lon="3.54943">
        <ele>1025</ele>
        <time>2012-09-08T06:44:58Z</time>
      </trkpt>
      <trkpt lat="44.95736" lon="3.5494">
        <ele>1024</ele>
        <time>2012-09-08T06:45:10Z</time>
      </trkpt>
      <trkpt lat="44.95743" lon="3.54918">
        <ele>1025</ele>
        <time>2012-09-08T06:45:24Z</time>
      </trkpt>
      <trkpt lat="44.95736" lon="3.54903">
        <ele>1039</ele>
        <time>2012-09-08T06:45:38Z</time>
      </trkpt>
      <trkpt lat="44.95735" lon="3.54897">
        <ele>1037</ele>
        <time>2012-09-08T06:46:08Z</time>
      </trkpt>
      <trkpt lat="44.95733" lon="3.54893">
        <ele>1038</ele>
        <time>2012-09-08T06:46:23Z</time>
      </trkpt>
      <trkpt lat="44.95737" lon="3.54889">
        <ele>1038</ele>
        <time>2012-09-08T06:46:37Z</time>
      </trkpt>
      <trkpt lat="44.95746" lon="3.54878">
        <ele>1029</ele>
        <time>2012-09-08T06:46:50Z</time>
      </trkpt>
      <trkpt lat="44.95755" lon="3.54863">
        <ele>1022</ele>
        <time>2012-09-08T06:47:01Z</time>
      </trkpt>
      <trkpt lat="44.95756" lon="3.54854">
        <ele>1030</ele>
        <time>2012-09-08T06:47:12Z</time>
      </trkpt>
      <trkpt lat="44.95757" lon="3.54849">
        <ele>1036</ele>
        <time>2012-09-08T06:47:22Z</time>
      </trkpt>
      <trkpt lat="44.95771" lon="3.54836">
        <ele>1024</ele>
        <time>2012-09-08T06:47:34Z</time>
      </trkpt>
      <trkpt lat="44.95777" lon="3.54821">
        <ele>1031</ele>
        <time>2012-09-08T06:47:47Z</time>
      </trkpt>
      <trkpt lat="44.95787" lon="3.54812">
        <ele>1026</ele>
        <time>2012-09-08T06:47:57Z</time>
      </trkpt>
      <trkpt lat="44.95792" lon="3.54802">
        <ele>1039</ele>
        <time>2012-09-08T06:48:09Z</time>
      </trkpt>
      <trkpt lat="44.95801" lon="3.54793">
        <ele>1042</ele>
        <time>2012-09-08T06:48:19Z</time>
      </trkpt>
      <trkpt lat="44.95804" lon="3.54787">
        <ele>1038</ele>
        <time>2012-09-08T06:48:30Z</time>
      </trkpt>
      <trkpt lat="44.9581" lon="3.54786">
        <ele>1037</ele>
        <time>2012-09-08T06:49:16Z</time>
      </trkpt>
      <trkpt lat="44.95823" lon="3.54781">
        <ele>1037</ele>
        <time>2012-09-08T06:49:27Z</time>
      </trkpt>
      <trkpt lat="44.95832" lon="3.54776">
        <ele>1033</ele>
        <time>2012-09-08T06:49:38Z</time>
      </trkpt>
      <trkpt lat="44.95842" lon="3.54769">
        <ele>1034</ele>
        <time>2012-09-08T06:49:50Z</time>
      </trkpt>
      <trkpt lat="44.95858" lon="3.54758">
        <ele>1036</ele>
        <time>2012-09-08T06:50:03Z</time>
      </trkpt>
      <trkpt lat="44.95866" lon="3.54746">
        <ele>1034</ele>
        <time>2012-09-08T06:50:15Z</time>
      </trkpt>
      <trkpt lat="44.95879" lon="3.54733">
        <ele>1035</ele>
        <time>2012-09-08T06:50:26Z</time>
      </trkpt>
      <trkpt lat="44.95885" lon="3.54733">
        <ele>1034</ele>
        <time>2012-09-08T06:50:40Z</time>
      </trkpt>
      <trkpt lat="44.95894" lon="3.54736">
        <ele>1034</ele>
        <time>2012-09-08T06:50:50Z</time>
      </trkpt>
      <trkpt lat="44.959" lon="3.54755">
        <ele>1037</ele>
        <time>2012-09-08T06:51:00Z</time>
      </trkpt>
      <trkpt lat="44.95909" lon="3.54774">
        <ele>1030</ele>
        <time>2012-09-08T06:51:10Z</time>
      </trkpt>
      <trkpt lat="44.95913" lon="3.54783">
        <ele>1033</ele>
        <time>2012-09-08T06:51:24Z</time>
      </trkpt>
      <trkpt lat="44.95919" lon="3.54784">
        <ele>1027</ele>
        <time>2012-09-08T06:51:36Z</time>
      </trkpt>
      <trkpt lat="44.95933" lon="3.5478">
        <ele>1029</ele>
        <time>2012-09-08T06:51:50Z</time>
      </trkpt>
      <trkpt lat="44.95945" lon="3.54773">
        <ele>1023</ele>
        <time>2012-09-08T06:52:05Z</time>
      </trkpt>
      <trkpt lat="44.95952" lon="3.54766">
        <ele>1032</ele>
        <time>2012-09-08T06:52:15Z</time>
      </trkpt>
      <trkpt lat="44.95966" lon="3.54778">
        <ele>1038</ele>
        <time>2012-09-08T06:52:42Z</time>
      </trkpt>
      <trkpt lat="44.96002" lon="3.54768">
        <ele>1040</ele>
        <time>2012-09-08T06:53:07Z</time>
      </trkpt>
      <trkpt lat="44.96012" lon="3.54753">
        <ele>1025</ele>
        <time>2012-09-08T06:53:18Z</time>
      </trkpt>
      <trkpt lat="44.96031" lon="3.54736">
        <ele>1023</ele>
        <time>2012-09-08T06:53:30Z</time>
      </trkpt>
      <trkpt lat="44.96034" lon="3.54737">
        <ele>1022</ele>
        <time>2012-09-08T06:53:40Z</time>
      </trkpt>
      <trkpt lat="44.9603" lon="3.54713">
        <ele>1030</ele>
        <time>2012-09-08T06:55:31Z</time>
      </trkpt>
      <trkpt lat="44.96042" lon="3.54712">
        <ele>1030</ele>
        <time>2012-09-08T06:55:42Z</time>
      </trkpt>
      <trkpt lat="44.96047" lon="3.54703">
        <ele>1030</ele>
        <time>2012-09-08T06:55:53Z</time>
      </trkpt>
      <trkpt lat="44.96059" lon="3.54703">
        <ele>1030</ele>
        <time>2012-09-08T06:56:15Z</time>
      </trkpt>
      <trkpt lat="44.96048" lon="3.54702">
        <ele>1032</ele>
        <time>2012-09-08T06:56:27Z</time>
      </trkpt>
      <trkpt lat="44.96049" lon="3.54703">
        <ele>1028</ele>
        <time>2012-09-08T06:56:54Z</time>
      </trkpt>
      <trkpt lat="44.96052" lon="3.54702">
        <ele>1031</ele>
        <time>2012-09-08T06:57:15Z</time>
      </trkpt>
      <trkpt lat="44.96052" lon="3.54705">
        <ele>1030</ele>
        <time>2012-09-08T06:58:04Z</time>
      </trkpt>
      <trkpt lat="44.96047" lon="3.54707">
        <ele>1029</ele>
        <time>2012-09-08T06:59:26Z</time>
      </trkpt>
      <trkpt lat="44.96053" lon="3.54697">
        <ele>1026</ele>
        <time>2012-09-08T06:59:38Z</time>
      </trkpt>
      <trkpt lat="44.96057" lon="3.54708">
        <ele>1022</ele>
        <time>2012-09-08T06:59:49Z</time>
      </trkpt>
      <trkpt lat="44.96051" lon="3.54705">
        <ele>1022</ele>
        <time>2012-09-08T07:00:01Z</time>
      </trkpt>
      <trkpt lat="44.96034" lon="3.54704">
        <ele>1033</ele>
        <time>2012-09-08T07:00:14Z</time>
      </trkpt>
      <trkpt lat="44.96034" lon="3.54674">
        <ele>1028</ele>
        <time>2012-09-08T07:00:25Z</time>
      </trkpt>
      <trkpt lat="44.96041" lon="3.54654">
        <ele>1025</ele>
        <time>2012-09-08T07:00:35Z</time>
      </trkpt>
      <trkpt lat="44.96045" lon="3.54637">
        <ele>1026</ele>
        <time>2012-09-08T07:00:47Z</time>
      </trkpt>
      <trkpt lat="44.96037" lon="3.54636">
        <ele>1036</ele>
        <time>2012-09-08T07:01:01Z</time>
      </trkpt>
      <trkpt lat="44.96031" lon="3.54636">
        <ele>1011</ele>
        <time>2012-09-08T07:01:17Z</time>
      </trkpt>
      <trkpt lat="44.9603" lon="3.54633">
        <ele>1024</ele>
        <time>2012-09-08T07:01:36Z</time>
      </trkpt>
      <trkpt lat="44.96015" lon="3.5463">
        <ele>1018</ele>
        <time>2012-09-08T07:01:49Z</time>
      </trkpt>
      <trkpt lat="44.96002" lon="3.54631">
        <ele>1022</ele>
        <time>2012-09-08T07:02:01Z</time>
      </trkpt>
      <trkpt lat="44.95984" lon="3.54633">
        <ele>1029</ele>
        <time>2012-09-08T07:02:14Z</time>
      </trkpt>
      <trkpt lat="44.95966" lon="3.54617">
        <ele>1031</ele>
        <time>2012-09-08T07:02:29Z</time>
      </trkpt>
      <trkpt lat="44.95955" lon="3.54614">
        <ele>1026</ele>
        <time>2012-09-08T07:02:41Z</time>
      </trkpt>
      <trkpt lat="44.9595" lon="3.54622">
        <ele>1027</ele>
        <time>2012-09-08T07:02:51Z</time>
      </trkpt>
      <trkpt lat="44.95951" lon="3.54613">
        <ele>1020</ele>
        <time>2012-09-08T07:03:14Z</time>
      </trkpt>
      <trkpt lat="44.95955" lon="3.5461">
        <ele>1028</ele>
        <time>2012-09-08T07:03:26Z</time>
      </trkpt>
      <trkpt lat="44.95971" lon="3.546">
        <ele>1029</ele>
        <time>2012-09-08T07:05:12Z</time>
      </trkpt>
      <trkpt lat="44.95958" lon="3.546">
        <ele>1040</ele>
        <time>2012-09-08T07:05:23Z</time>
      </trkpt>
      <trkpt lat="44.95943" lon="3.54599">
        <ele>1034</ele>
        <time>2012-09-08T07:05:34Z</time>
      </trkpt>
      <trkpt lat="44.95934" lon="3.54602">
        <ele>1042</ele>
        <time>2012-09-08T07:05:48Z</time>
      </trkpt>
      <trkpt lat="44.95926" lon="3.54601">
        <ele>1046</ele>
        <time>2012-09-08T07:05:58Z</time>
      </trkpt>
      <trkpt lat="44.95916" lon="3.54589">
        <ele>1036</ele>
        <time>2012-09-08T07:06:10Z</time>
      </trkpt>
      <trkpt lat="44.95906" lon="3.54593">
        <ele>1031</ele>
        <time>2012-09-08T07:06:29Z</time>
      </trkpt>
      <trkpt lat="44.95886" lon="3.54602">
        <ele>1032</ele>
        <time>2012-09-08T07:06:39Z</time>
      </trkpt>
      <trkpt lat="44.9587" lon="3.54591">
        <ele>1022</ele>
        <time>2012-09-08T07:06:51Z</time>
      </trkpt>
      <trkpt lat="44.95868" lon="3.54574">
        <ele>1019</ele>
        <time>2012-09-08T07:07:01Z</time>
      </trkpt>
      <trkpt lat="44.95864" lon="3.54561">
        <ele>1026</ele>
        <time>2012-09-08T07:07:11Z</time>
      </trkpt>
      <trkpt lat="44.95856" lon="3.54541">
        <ele>1026</ele>
        <time>2012-09-08T07:07:25Z</time>
      </trkpt>
      <trkpt lat="44.95848" lon="3.54525">
        <ele>1021</ele>
        <time>2012-09-08T07:07:37Z</time>
      </trkpt>
      <trkpt lat="44.95847" lon="3.54475">
        <ele>1029</ele>
        <time>2012-09-08T07:08:05Z</time>
      </trkpt>
      <trkpt lat="44.95852" lon="3.54396">
        <ele>1032</ele>
        <time>2012-09-08T07:08:37Z</time>
      </trkpt>
      <trkpt lat="44.95838" lon="3.54385">
        <ele>1018</ele>
        <time>2012-09-08T07:08:48Z</time>
      </trkpt>
      <trkpt lat="44.95833" lon="3.54384">
        <ele>1004</ele>
        <time>2012-09-08T07:09:02Z</time>
      </trkpt>
      <trkpt lat="44.95823" lon="3.54371">
        <ele>1011</ele>
        <time>2012-09-08T07:09:14Z</time>
      </trkpt>
      <trkpt lat="44.95818" lon="3.54359">
        <ele>1010</ele>
        <time>2012-09-08T07:09:25Z</time>
      </trkpt>
      <trkpt lat="44.9581" lon="3.54341">
        <ele>1010</ele>
        <time>2012-09-08T07:09:38Z</time>
      </trkpt>
      <trkpt lat="44.95805" lon="3.54325">
        <ele>1002</ele>
        <time>2012-09-08T07:09:49Z</time>
      </trkpt>
      <trkpt lat="44.95801" lon="3.54302">
        <ele>1001</ele>
        <time>2012-09-08T07:10:04Z</time>
      </trkpt>
      <trkpt lat="44.95795" lon="3.5428">
        <ele>1004</ele>
        <time>2012-09-08T07:10:15Z</time>
      </trkpt>
      <trkpt lat="44.95786" lon="3.54268">
        <ele>1004</ele>
        <time>2012-09-08T07:10:26Z</time>
      </trkpt>
      <trkpt lat="44.95774" lon="3.54254">
        <ele>1003</ele>
        <time>2012-09-08T07:10:38Z</time>
      </trkpt>
      <trkpt lat="44.9576" lon="3.54242">
        <ele>1007</ele>
        <time>2012-09-08T07:10:52Z</time>
      </trkpt>
      <trkpt lat="44.95756" lon="3.54239">
        <ele>1011</ele>
        <time>2012-09-08T07:11:07Z</time>
      </trkpt>
      <trkpt lat="44.95747" lon="3.54227">
        <ele>1007</ele>
        <time>2012-09-08T07:11:20Z</time>
      </trkpt>
      <trkpt lat="44.95734" lon="3.54225">
        <ele>1019</ele>
        <time>2012-09-08T07:11:32Z</time>
      </trkpt>
      <trkpt lat="44.95721" lon="3.5422">
        <ele>1009</ele>
        <time>2012-09-08T07:11:42Z</time>
      </trkpt>
      <trkpt lat="44.95709" lon="3.54218">
        <ele>1006</ele>
        <time>2012-09-08T07:11:52Z</time>
      </trkpt>
      <trkpt lat="44.95697" lon="3.54211">
        <ele>1019</ele>
        <time>2012-09-08T07:12:05Z</time>
      </trkpt>
      <trkpt lat="44.95688" lon="3.54204">
        <ele>1012</ele>
        <time>2012-09-08T07:12:16Z</time>
      </trkpt>
      <trkpt lat="44.95674" lon="3.54197">
        <ele>998</ele>
        <time>2012-09-08T07:12:27Z</time>
      </trkpt>
      <trkpt lat="44.9566" lon="3.54194">
        <ele>1006</ele>
        <time>2012-09-08T07:12:39Z</time>
      </trkpt>
      <trkpt lat="44.95649" lon="3.54182">
        <ele>1007</ele>
        <time>2012-09-08T07:12:49Z</time>
      </trkpt>
      <trkpt lat="44.95634" lon="3.54161">
        <ele>995</ele>
        <time>2012-09-08T07:13:01Z</time>
      </trkpt>
      <trkpt lat="44.95623" lon="3.54155">
        <ele>994</ele>
        <time>2012-09-08T07:13:12Z</time>
      </trkpt>
      <trkpt lat="44.95615" lon="3.54149">
        <ele>990</ele>
        <time>2012-09-08T07:13:25Z</time>
      </trkpt>
      <trkpt lat="44.95603" lon="3.54145">
        <ele>982</ele>
        <time>2012-09-08T07:13:37Z</time>
      </trkpt>
      <trkpt lat="44.95596" lon="3.54139">
        <ele>982</ele>
        <time>2012-09-08T07:13:51Z</time>
      </trkpt>
      <trkpt lat="44.95593" lon="3.54116">
        <ele>988</ele>
        <time>2012-09-08T07:14:03Z</time>
      </trkpt>
      <trkpt lat="44.95598" lon="3.54103">
        <ele>987</ele>
        <time>2012-09-08T07:14:14Z</time>
      </trkpt>
      <trkpt lat="44.95594" lon="3.54086">
        <ele>989</ele>
        <time>2012-09-08T07:14:25Z</time>
      </trkpt>
      <trkpt lat="44.95596" lon="3.54068">
        <ele>987</ele>
        <time>2012-09-08T07:14:35Z</time>
      </trkpt>
      <trkpt lat="44.956" lon="3.54057">
        <ele>982</ele>
        <time>2012-09-08T07:14:46Z</time>
      </trkpt>
      <trkpt lat="44.95605" lon="3.54045">
        <ele>986</ele>
        <time>2012-09-08T07:14:58Z</time>
      </trkpt>
      <trkpt lat="44.95602" lon="3.54027">
        <ele>989</ele>
        <time>2012-09-08T07:15:10Z</time>
      </trkpt>
      <trkpt lat="44.95592" lon="3.54005">
        <ele>991</ele>
        <time>2012-09-08T07:15:20Z</time>
      </trkpt>
      <trkpt lat="44.95588" lon="3.54">
        <ele>998</ele>
        <time>2012-09-08T07:15:30Z</time>
      </trkpt>
      <trkpt lat="44.95592" lon="3.53994">
        <ele>983</ele>
        <time>2012-09-08T07:15:49Z</time>
      </trkpt>
      <trkpt lat="44.95594" lon="3.53982">
        <ele>977</ele>
        <time>2012-09-08T07:16:03Z</time>
      </trkpt>
      <trkpt lat="44.9559" lon="3.53968">
        <ele>968</ele>
        <time>2012-09-08T07:16:13Z</time>
      </trkpt>
      <trkpt lat="44.95581" lon="3.53946">
        <ele>980</ele>
        <time>2012-09-08T07:16:25Z</time>
      </trkpt>
      <trkpt lat="44.95582" lon="3.5393">
        <ele>989</ele>
        <time>2012-09-08T07:16:35Z</time>
      </trkpt>
      <trkpt lat="44.95578" lon="3.53915">
        <ele>988</ele>
        <time>2012-09-08T07:16:56Z</time>
      </trkpt>
      <trkpt lat="44.95577" lon="3.53911">
        <ele>987</ele>
        <time>2012-09-08T07:17:10Z</time>
      </trkpt>
      <trkpt lat="44.9557" lon="3.53893">
        <ele>986</ele>
        <time>2012-09-08T07:17:20Z</time>
      </trkpt>
      <trkpt lat="44.9556" lon="3.53883">
        <ele>977</ele>
        <time>2012-09-08T07:17:35Z</time>
      </trkpt>
      <trkpt lat="44.95547" lon="3.53875">
        <ele>979</ele>
        <time>2012-09-08T07:17:46Z</time>
      </trkpt>
      <trkpt lat="44.95529" lon="3.53869">
        <ele>975</ele>
        <time>2012-09-08T07:17:57Z</time>
      </trkpt>
      <trkpt lat="44.95522" lon="3.53866">
        <ele>974</ele>
        <time>2012-09-08T07:18:07Z</time>
      </trkpt>
      <trkpt lat="44.95516" lon="3.5385">
        <ele>977</ele>
        <time>2012-09-08T07:18:20Z</time>
      </trkpt>
      <trkpt lat="44.95508" lon="3.53806">
        <ele>971</ele>
        <time>2012-09-08T07:18:32Z</time>
      </trkpt>
      <trkpt lat="44.95491" lon="3.53801">
        <ele>979</ele>
        <time>2012-09-08T07:18:43Z</time>
      </trkpt>
      <trkpt lat="44.95465" lon="3.53842">
        <ele>983</ele>
        <time>2012-09-08T07:18:54Z</time>
      </trkpt>
      <trkpt lat="44.95454" lon="3.53837">
        <ele>986</ele>
        <time>2012-09-08T07:19:04Z</time>
      </trkpt>
      <trkpt lat="44.95437" lon="3.5383">
        <ele>996</ele>
        <time>2012-09-08T07:19:16Z</time>
      </trkpt>
      <trkpt lat="44.95428" lon="3.53819">
        <ele>990</ele>
        <time>2012-09-08T07:19:28Z</time>
      </trkpt>
      <trkpt lat="44.95415" lon="3.53805">
        <ele>983</ele>
        <time>2012-09-08T07:19:39Z</time>
      </trkpt>
      <trkpt lat="44.95404" lon="3.53792">
        <ele>986</ele>
        <time>2012-09-08T07:19:52Z</time>
      </trkpt>
      <trkpt lat="44.95393" lon="3.53781">
        <ele>985</ele>
        <time>2012-09-08T07:20:04Z</time>
      </trkpt>
      <trkpt lat="44.95379" lon="3.53766">
        <ele>985</ele>
        <time>2012-09-08T07:20:17Z</time>
      </trkpt>
      <trkpt lat="44.95368" lon="3.53754">
        <ele>985</ele>
        <time>2012-09-08T07:20:29Z</time>
      </trkpt>
      <trkpt lat="44.95358" lon="3.53733">
        <ele>982</ele>
        <time>2012-09-08T07:20:42Z</time>
      </trkpt>
      <trkpt lat="44.95346" lon="3.53722">
        <ele>987</ele>
        <time>2012-09-08T07:20:53Z</time>
      </trkpt>
      <trkpt lat="44.95332" lon="3.53709">
        <ele>984</ele>
        <time>2012-09-08T07:21:05Z</time>
      </trkpt>
      <trkpt lat="44.95319" lon="3.53707">
        <ele>981</ele>
        <time>2012-09-08T07:21:18Z</time>
      </trkpt>
      <trkpt lat="44.95306" lon="3.53705">
        <ele>984</ele>
        <time>2012-09-08T07:21:28Z</time>
      </trkpt>
      <trkpt lat="44.9529" lon="3.53706">
        <ele>985</ele>
        <time>2012-09-08T07:21:40Z</time>
      </trkpt>
      <trkpt lat="44.95277" lon="3.53697">
        <ele>995</ele>
        <time>2012-09-08T07:21:50Z</time>
      </trkpt>
      <trkpt lat="44.95268" lon="3.53688">
        <ele>989</ele>
        <time>2012-09-08T07:22:01Z</time>
      </trkpt>
      <trkpt lat="44.95261" lon="3.53678">
        <ele>997</ele>
        <time>2012-09-08T07:22:15Z</time>
      </trkpt>
      <trkpt lat="44.95253" lon="3.53662">
        <ele>994</ele>
        <time>2012-09-08T07:22:26Z</time>
      </trkpt>
      <trkpt lat="44.9525" lon="3.53649">
        <ele>991</ele>
        <time>2012-09-08T07:22:37Z</time>
      </trkpt>
      <trkpt lat="44.95246" lon="3.53631">
        <ele>993</ele>
        <time>2012-09-08T07:22:49Z</time>
      </trkpt>
      <trkpt lat="44.95237" lon="3.53604">
        <ele>991</ele>
        <time>2012-09-08T07:23:00Z</time>
      </trkpt>
      <trkpt lat="44.95231" lon="3.53592">
        <ele>999</ele>
        <time>2012-09-08T07:23:12Z</time>
      </trkpt>
      <trkpt lat="44.95222" lon="3.53573">
        <ele>999</ele>
        <time>2012-09-08T07:23:24Z</time>
      </trkpt>
      <trkpt lat="44.95213" lon="3.53558">
        <ele>985</ele>
        <time>2012-09-08T07:23:38Z</time>
      </trkpt>
      <trkpt lat="44.95203" lon="3.53538">
        <ele>989</ele>
        <time>2012-09-08T07:23:53Z</time>
      </trkpt>
      <trkpt lat="44.95198" lon="3.53522">
        <ele>989</ele>
        <time>2012-09-08T07:24:03Z</time>
      </trkpt>
      <trkpt lat="44.9519" lon="3.53508">
        <ele>991</ele>
        <time>2012-09-08T07:24:14Z</time>
      </trkpt>
      <trkpt lat="44.95181" lon="3.53494">
        <ele>988</ele>
        <time>2012-09-08T07:24:26Z</time>
      </trkpt>
      <trkpt lat="44.95178" lon="3.53481">
        <ele>994</ele>
        <time>2012-09-08T07:24:36Z</time>
      </trkpt>
      <trkpt lat="44.95175" lon="3.53469">
        <ele>991</ele>
        <time>2012-09-08T07:24:48Z</time>
      </trkpt>
      <trkpt lat="44.95168" lon="3.53454">
        <ele>996</ele>
        <time>2012-09-08T07:25:00Z</time>
      </trkpt>
      <trkpt lat="44.95154" lon="3.53436">
        <ele>993</ele>
        <time>2012-09-08T07:25:11Z</time>
      </trkpt>
      <trkpt lat="44.95143" lon="3.53418">
        <ele>996</ele>
        <time>2012-09-08T07:25:23Z</time>
      </trkpt>
      <trkpt lat="44.95133" lon="3.53396">
        <ele>994</ele>
        <time>2012-09-08T07:25:34Z</time>
      </trkpt>
      <trkpt lat="44.95123" lon="3.53378">
        <ele>994</ele>
        <time>2012-09-08T07:25:45Z</time>
      </trkpt>
      <trkpt lat="44.95111" lon="3.53362">
        <ele>1003</ele>
        <time>2012-09-08T07:25:57Z</time>
      </trkpt>
      <trkpt lat="44.95105" lon="3.53352">
        <ele>1000</ele>
        <time>2012-09-08T07:26:09Z</time>
      </trkpt>
      <trkpt lat="44.95105" lon="3.53343">
        <ele>995</ele>
        <time>2012-09-08T07:26:20Z</time>
      </trkpt>
      <trkpt lat="44.95095" lon="3.53317">
        <ele>993</ele>
        <time>2012-09-08T07:26:31Z</time>
      </trkpt>
      <trkpt lat="44.95091" lon="3.533">
        <ele>989</ele>
        <time>2012-09-08T07:26:43Z</time>
      </trkpt>
      <trkpt lat="44.95081" lon="3.53288">
        <ele>991</ele>
        <time>2012-09-08T07:26:53Z</time>
      </trkpt>
      <trkpt lat="44.9507" lon="3.53279">
        <ele>992</ele>
        <time>2012-09-08T07:27:05Z</time>
      </trkpt>
      <trkpt lat="44.95052" lon="3.53277">
        <ele>987</ele>
        <time>2012-09-08T07:27:17Z</time>
      </trkpt>
      <trkpt lat="44.9504" lon="3.53261">
        <ele>988</ele>
        <time>2012-09-08T07:27:30Z</time>
      </trkpt>
      <trkpt lat="44.95034" lon="3.53258">
        <ele>986</ele>
        <time>2012-09-08T07:27:43Z</time>
      </trkpt>
      <trkpt lat="44.95031" lon="3.53254">
        <ele>987</ele>
        <time>2012-09-08T07:28:00Z</time>
      </trkpt>
      <trkpt lat="44.95024" lon="3.53252">
        <ele>991</ele>
        <time>2012-09-08T07:28:14Z</time>
      </trkpt>
      <trkpt lat="44.95012" lon="3.53245">
        <ele>988</ele>
        <time>2012-09-08T07:28:24Z</time>
      </trkpt>
      <trkpt lat="44.95002" lon="3.53233">
        <ele>992</ele>
        <time>2012-09-08T07:28:34Z</time>
      </trkpt>
      <trkpt lat="44.94995" lon="3.53216">
        <ele>991</ele>
        <time>2012-09-08T07:28:44Z</time>
      </trkpt>
      <trkpt lat="44.94984" lon="3.53199">
        <ele>992</ele>
        <time>2012-09-08T07:28:55Z</time>
      </trkpt>
      <trkpt lat="44.94972" lon="3.53194">
        <ele>988</ele>
        <time>2012-09-08T07:29:05Z</time>
      </trkpt>
      <trkpt lat="44.9496" lon="3.53188">
        <ele>991</ele>
        <time>2012-09-08T07:29:16Z</time>
      </trkpt>
      <trkpt lat="44.94945" lon="3.53187">
        <ele>985</ele>
        <time>2012-09-08T07:29:27Z</time>
      </trkpt>
      <trkpt lat="44.9493" lon="3.53192">
        <ele>987</ele>
        <time>2012-09-08T07:29:39Z</time>
      </trkpt>
      <trkpt lat="44.94917" lon="3.53197">
        <ele>985</ele>
        <time>2012-09-08T07:29:51Z</time>
      </trkpt>
      <trkpt lat="44.94907" lon="3.53216">
        <ele>993</ele>
        <time>2012-09-08T07:30:01Z</time>
      </trkpt>
      <trkpt lat="44.94891" lon="3.53227">
        <ele>993</ele>
        <time>2012-09-08T07:30:14Z</time>
      </trkpt>
      <trkpt lat="44.94867" lon="3.53234">
        <ele>991</ele>
        <time>2012-09-08T07:30:26Z</time>
      </trkpt>
      <trkpt lat="44.94852" lon="3.53234">
        <ele>993</ele>
        <time>2012-09-08T07:30:38Z</time>
      </trkpt>
      <trkpt lat="44.94843" lon="3.53222">
        <ele>996</ele>
        <time>2012-09-08T07:30:50Z</time>
      </trkpt>
      <trkpt lat="44.94833" lon="3.53208">
        <ele>995</ele>
        <time>2012-09-08T07:31:03Z</time>
      </trkpt>
      <trkpt lat="44.94828" lon="3.53198">
        <ele>995</ele>
        <time>2012-09-08T07:31:14Z</time>
      </trkpt>
      <trkpt lat="44.94812" lon="3.53198">
        <ele>992</ele>
        <time>2012-09-08T07:31:26Z</time>
      </trkpt>
      <trkpt lat="44.94799" lon="3.53201">
        <ele>1000</ele>
        <time>2012-09-08T07:31:37Z</time>
      </trkpt>
      <trkpt lat="44.94785" lon="3.5319">
        <ele>1016</ele>
        <time>2012-09-08T07:31:48Z</time>
      </trkpt>
      <trkpt lat="44.94779" lon="3.5318">
        <ele>1010</ele>
        <time>2012-09-08T07:31:58Z</time>
      </trkpt>
      <trkpt lat="44.94768" lon="3.53173">
        <ele>1012</ele>
        <time>2012-09-08T07:32:10Z</time>
      </trkpt>
      <trkpt lat="44.94757" lon="3.53161">
        <ele>1006</ele>
        <time>2012-09-08T07:32:22Z</time>
      </trkpt>
      <trkpt lat="44.94745" lon="3.53155">
        <ele>1012</ele>
        <time>2012-09-08T07:32:34Z</time>
      </trkpt>
      <trkpt lat="44.94737" lon="3.53146">
        <ele>1015</ele>
        <time>2012-09-08T07:32:44Z</time>
      </trkpt>
      <trkpt lat="44.94726" lon="3.5314">
        <ele>1020</ele>
        <time>2012-09-08T07:32:58Z</time>
      </trkpt>
      <trkpt lat="44.9472" lon="3.53139">
        <ele>1015</ele>
        <time>2012-09-08T07:33:10Z</time>
      </trkpt>
      <trkpt lat="44.94699" lon="3.53143">
        <ele>997</ele>
        <time>2012-09-08T07:33:21Z</time>
      </trkpt>
      <trkpt lat="44.94683" lon="3.53164">
        <ele>1022</ele>
        <time>2012-09-08T07:33:33Z</time>
      </trkpt>
      <trkpt lat="44.9467" lon="3.53161">
        <ele>1025</ele>
        <time>2012-09-08T07:33:44Z</time>
      </trkpt>
      <trkpt lat="44.9466" lon="3.53152">
        <ele>1022</ele>
        <time>2012-09-08T07:33:56Z</time>
      </trkpt>
      <trkpt lat="44.9465" lon="3.53126">
        <ele>1014</ele>
        <time>2012-09-08T07:34:08Z</time>
      </trkpt>
      <trkpt lat="44.94647" lon="3.53103">
        <ele>1010</ele>
        <time>2012-09-08T07:34:20Z</time>
      </trkpt>
      <trkpt lat="44.94636" lon="3.53081">
        <ele>1014</ele>
        <time>2012-09-08T07:34:31Z</time>
      </trkpt>
      <trkpt lat="44.9463" lon="3.53067">
        <ele>1018</ele>
        <time>2012-09-08T07:34:41Z</time>
      </trkpt>
      <trkpt lat="44.94619" lon="3.53057">
        <ele>1012</ele>
        <time>2012-09-08T07:34:54Z</time>
      </trkpt>
      <trkpt lat="44.94613" lon="3.53045">
        <ele>1008</ele>
        <time>2012-09-08T07:35:05Z</time>
      </trkpt>
      <trkpt lat="44.94603" lon="3.53047">
        <ele>1021</ele>
        <time>2012-09-08T07:35:16Z</time>
      </trkpt>
      <trkpt lat="44.94592" lon="3.53043">
        <ele>1008</ele>
        <time>2012-09-08T07:35:26Z</time>
      </trkpt>
      <trkpt lat="44.94579" lon="3.53025">
        <ele>1015</ele>
        <time>2012-09-08T07:35:38Z</time>
      </trkpt>
      <trkpt lat="44.94567" lon="3.53017">
        <ele>1017</ele>
        <time>2012-09-08T07:35:50Z</time>
      </trkpt>
      <trkpt lat="44.94554" lon="3.53015">
        <ele>1016</ele>
        <time>2012-09-08T07:36:03Z</time>
      </trkpt>
      <trkpt lat="44.9454" lon="3.53007">
        <ele>1020</ele>
        <time>2012-09-08T07:36:16Z</time>
      </trkpt>
      <trkpt lat="44.9453" lon="3.53001">
        <ele>1017</ele>
        <time>2012-09-08T07:36:27Z</time>
      </trkpt>
      <trkpt lat="44.94518" lon="3.52992">
        <ele>1015</ele>
        <time>2012-09-08T07:36:39Z</time>
      </trkpt>
      <trkpt lat="44.9451" lon="3.5299">
        <ele>1017</ele>
        <time>2012-09-08T07:36:49Z</time>
      </trkpt>
      <trkpt lat="44.94496" lon="3.5298">
        <ele>1014</ele>
        <time>2012-09-08T07:37:02Z</time>
      </trkpt>
      <trkpt lat="44.94489" lon="3.52967">
        <ele>1019</ele>
        <time>2012-09-08T07:37:16Z</time>
      </trkpt>
      <trkpt lat="44.94476" lon="3.52963">
        <ele>1021</ele>
        <time>2012-09-08T07:37:30Z</time>
      </trkpt>
      <trkpt lat="44.94464" lon="3.52945">
        <ele>1019</ele>
        <time>2012-09-08T07:37:43Z</time>
      </trkpt>
      <trkpt lat="44.94459" lon="3.52935">
        <ele>1023</ele>
        <time>2012-09-08T07:37:54Z</time>
      </trkpt>
      <trkpt lat="44.94452" lon="3.52921">
        <ele>1035</ele>
        <time>2012-09-08T07:38:07Z</time>
      </trkpt>
      <trkpt lat="44.94446" lon="3.52911">
        <ele>1030</ele>
        <time>2012-09-08T07:38:21Z</time>
      </trkpt>
      <trkpt lat="44.94437" lon="3.52898">
        <ele>1023</ele>
        <time>2012-09-08T07:38:32Z</time>
      </trkpt>
      <trkpt lat="44.94432" lon="3.5289">
        <ele>1028</ele>
        <time>2012-09-08T07:38:50Z</time>
      </trkpt>
      <trkpt lat="44.94436" lon="3.5289">
        <ele>1039</ele>
        <time>2012-09-08T07:39:15Z</time>
      </trkpt>
      <trkpt lat="44.94434" lon="3.52896">
        <ele>1035</ele>
        <time>2012-09-08T07:39:28Z</time>
      </trkpt>
      <trkpt lat="44.9443" lon="3.52897">
        <ele>1040</ele>
        <time>2012-09-08T07:39:43Z</time>
      </trkpt>
      <trkpt lat="44.94434" lon="3.52901">
        <ele>1041</ele>
        <time>2012-09-08T07:40:20Z</time>
      </trkpt>
      <trkpt lat="44.94434" lon="3.52894">
        <ele>1039</ele>
        <time>2012-09-08T07:40:35Z</time>
      </trkpt>
      <trkpt lat="44.94431" lon="3.52894">
        <ele>1041</ele>
        <time>2012-09-08T07:41:19Z</time>
      </trkpt>
      <trkpt lat="44.9444" lon="3.52895">
        <ele>1037</ele>
        <time>2012-09-08T07:41:49Z</time>
      </trkpt>
      <trkpt lat="44.94442" lon="3.52898">
        <ele>1034</ele>
        <time>2012-09-08T07:42:02Z</time>
      </trkpt>
      <trkpt lat="44.94437" lon="3.52897">
        <ele>1041</ele>
        <time>2012-09-08T07:42:23Z</time>
      </trkpt>
      <trkpt lat="44.94424" lon="3.52899">
        <ele>1034</ele>
        <time>2012-09-08T07:42:34Z</time>
      </trkpt>
      <trkpt lat="44.94416" lon="3.52892">
        <ele>1035</ele>
        <time>2012-09-08T07:42:44Z</time>
      </trkpt>
      <trkpt lat="44.94412" lon="3.52871">
        <ele>1035</ele>
        <time>2012-09-08T07:42:58Z</time>
      </trkpt>
      <trkpt lat="44.94407" lon="3.52865">
        <ele>1036</ele>
        <time>2012-09-08T07:43:11Z</time>
      </trkpt>
      <trkpt lat="44.94402" lon="3.52853">
        <ele>1034</ele>
        <time>2012-09-08T07:43:21Z</time>
      </trkpt>
      <trkpt lat="44.94393" lon="3.52842">
        <ele>1035</ele>
        <time>2012-09-08T07:43:33Z</time>
      </trkpt>
      <trkpt lat="44.94382" lon="3.52819">
        <ele>1036</ele>
        <time>2012-09-08T07:43:45Z</time>
      </trkpt>
      <trkpt lat="44.9437" lon="3.52805">
        <ele>1035</ele>
        <time>2012-09-08T07:43:55Z</time>
      </trkpt>
      <trkpt lat="44.91545" lon="3.50471">
        <ele>1161</ele>
        <time>2012-09-08T09:10:52Z</time>
      </trkpt>
      <trkpt lat="44.91533" lon="3.50481">
        <ele>1132</ele>
        <time>2012-09-08T09:11:16Z</time>
      </trkpt>
      <trkpt lat="44.9151" lon="3.50478">
        <ele>1134</ele>
        <time>2012-09-08T09:11:27Z</time>
      </trkpt>
      <trkpt lat="44.91496" lon="3.5047">
        <ele>1133</ele>
        <time>2012-09-08T09:11:37Z</time>
      </trkpt>
      <trkpt lat="44.91489" lon="3.50469">
        <ele>1140</ele>
        <time>2012-09-08T09:11:48Z</time>
      </trkpt>
      <trkpt lat="44.9148" lon="3.50463">
        <ele>1135</ele>
        <time>2012-09-08T09:12:00Z</time>
      </trkpt>
      <trkpt lat="44.9147" lon="3.50453">
        <ele>1127</ele>
        <time>2012-09-08T09:12:11Z</time>
      </trkpt>
      <trkpt lat="44.91458" lon="3.50446">
        <ele>1134</ele>
        <time>2012-09-08T09:12:24Z</time>
      </trkpt>
      <trkpt lat="44.91445" lon="3.5044">
        <ele>1128</ele>
        <time>2012-09-08T09:12:34Z</time>
      </trkpt>
      <trkpt lat="44.91436" lon="3.5043">
        <ele>1127</ele>
        <time>2012-09-08T09:12:48Z</time>
      </trkpt>
      <trkpt lat="44.91427" lon="3.50428">
        <ele>1129</ele>
        <time>2012-09-08T09:13:00Z</time>
      </trkpt>
      <trkpt lat="44.91415" lon="3.50423">
        <ele>1129</ele>
        <time>2012-09-08T09:13:13Z</time>
      </trkpt>
      <trkpt lat="44.91402" lon="3.50422">
        <ele>1126</ele>
        <time>2012-09-08T09:13:23Z</time>
      </trkpt>
      <trkpt lat="44.9139" lon="3.50415">
        <ele>1129</ele>
        <time>2012-09-08T09:13:35Z</time>
      </trkpt>
      <trkpt lat="44.91383" lon="3.50406">
        <ele>1127</ele>
        <time>2012-09-08T09:13:46Z</time>
      </trkpt>
      <trkpt lat="44.9137" lon="3.50403">
        <ele>1128</ele>
        <time>2012-09-08T09:13:57Z</time>
      </trkpt>
      <trkpt lat="44.91356" lon="3.50394">
        <ele>1130</ele>
        <time>2012-09-08T09:14:08Z</time>
      </trkpt>
      <trkpt lat="44.91346" lon="3.50385">
        <ele>1132</ele>
        <time>2012-09-08T09:14:20Z</time>
      </trkpt>
      <trkpt lat="44.91333" lon="3.50383">
        <ele>1130</ele>
        <time>2012-09-08T09:14:32Z</time>
      </trkpt>
      <trkpt lat="44.91311" lon="3.50361">
        <ele>973</ele>
        <time>2012-09-08T09:14:45Z</time>
      </trkpt>
      <trkpt lat="44.91304" lon="3.50357">
        <ele>1086</ele>
        <time>2012-09-08T09:14:57Z</time>
      </trkpt>
      <trkpt lat="44.9129" lon="3.50356">
        <ele>1105</ele>
        <time>2012-09-08T09:15:07Z</time>
      </trkpt>
      <trkpt lat="44.91275" lon="3.50353">
        <ele>1127</ele>
        <time>2012-09-08T09:15:19Z</time>
      </trkpt>
      <trkpt lat="44.91268" lon="3.5036">
        <ele>1122</ele>
        <time>2012-09-08T09:15:30Z</time>
      </trkpt>
      <trkpt lat="44.91257" lon="3.50369">
        <ele>1124</ele>
        <time>2012-09-08T09:15:41Z</time>
      </trkpt>
      <trkpt lat="44.91245" lon="3.50374">
        <ele>1123</ele>
        <time>2012-09-08T09:15:53Z</time>
      </trkpt>
      <trkpt lat="44.91232" lon="3.50377">
        <ele>1118</ele>
        <time>2012-09-08T09:16:05Z</time>
      </trkpt>
      <trkpt lat="44.91224" lon="3.50383">
        <ele>1101</ele>
        <time>2012-09-08T09:16:17Z</time>
      </trkpt>
      <trkpt lat="44.91212" lon="3.50387">
        <ele>1121</ele>
        <time>2012-09-08T09:16:30Z</time>
      </trkpt>
      <trkpt lat="44.91195" lon="3.50386">
        <ele>1127</ele>
        <time>2012-09-08T09:16:42Z</time>
      </trkpt>
      <trkpt lat="44.91188" lon="3.50396">
        <ele>1125</ele>
        <time>2012-09-08T09:16:52Z</time>
      </trkpt>
      <trkpt lat="44.91173" lon="3.50401">
        <ele>1107</ele>
        <time>2012-09-08T09:17:03Z</time>
      </trkpt>
      <trkpt lat="44.91158" lon="3.50407">
        <ele>1128</ele>
        <time>2012-09-08T09:17:16Z</time>
      </trkpt>
      <trkpt lat="44.91145" lon="3.50412">
        <ele>1106</ele>
        <time>2012-09-08T09:17:26Z</time>
      </trkpt>
      <trkpt lat="44.91132" lon="3.50418">
        <ele>1101</ele>
        <time>2012-09-08T09:17:37Z</time>
      </trkpt>
      <trkpt lat="44.91118" lon="3.50418">
        <ele>1130</ele>
        <time>2012-09-08T09:17:49Z</time>
      </trkpt>
      <trkpt lat="44.91106" lon="3.50423">
        <ele>1116</ele>
        <time>2012-09-08T09:18:01Z</time>
      </trkpt>
      <trkpt lat="44.91098" lon="3.5044">
        <ele>1137</ele>
        <time>2012-09-08T09:18:12Z</time>
      </trkpt>
      <trkpt lat="44.91089" lon="3.5046">
        <ele>1116</ele>
        <time>2012-09-08T09:18:25Z</time>
      </trkpt>
      <trkpt lat="44.9108" lon="3.50486">
        <ele>1127</ele>
        <time>2012-09-08T09:18:38Z</time>
      </trkpt>
      <trkpt lat="44.9107" lon="3.50498">
        <ele>1101</ele>
        <time>2012-09-08T09:18:50Z</time>
      </trkpt>
      <trkpt lat="44.9106" lon="3.50503">
        <ele>1104</ele>
        <time>2012-09-08T09:19:00Z</time>
      </trkpt>
      <trkpt lat="44.91047" lon="3.50506">
        <ele>1121</ele>
        <time>2012-09-08T09:19:11Z</time>
      </trkpt>
      <trkpt lat="44.91036" lon="3.50516">
        <ele>1130</ele>
        <time>2012-09-08T09:19:24Z</time>
      </trkpt>
      <trkpt lat="44.91029" lon="3.50534">
        <ele>1136</ele>
        <time>2012-09-08T09:19:36Z</time>
      </trkpt>
      <trkpt lat="44.91016" lon="3.5055">
        <ele>1137</ele>
        <time>2012-09-08T09:19:48Z</time>
      </trkpt>
      <trkpt lat="44.91003" lon="3.50549">
        <ele>1152</ele>
        <time>2012-09-08T09:20:00Z</time>
      </trkpt>
      <trkpt lat="44.90992" lon="3.5054">
        <ele>1085</ele>
        <time>2012-09-08T09:20:17Z</time>
      </trkpt>
      <trkpt lat="44.90985" lon="3.50542">
        <ele>1086</ele>
        <time>2012-09-08T09:20:30Z</time>
      </trkpt>
      <trkpt lat="44.90984" lon="3.50558">
        <ele>1114</ele>
        <time>2012-09-08T09:20:42Z</time>
      </trkpt>
      <trkpt lat="44.90979" lon="3.50569">
        <ele>1099</ele>
        <time>2012-09-08T09:20:52Z</time>
      </trkpt>
      <trkpt lat="44.90971" lon="3.50574">
        <ele>1124</ele>
        <time>2012-09-08T09:21:03Z</time>
      </trkpt>
      <trkpt lat="44.90963" lon="3.50578">
        <ele>1116</ele>
        <time>2012-09-08T09:21:17Z</time>
      </trkpt>
      <trkpt lat="44.90966" lon="3.50591">
        <ele>1100</ele>
        <time>2012-09-08T09:21:28Z</time>
      </trkpt>
      <trkpt lat="44.90963" lon="3.50599">
        <ele>1136</ele>
        <time>2012-09-08T09:21:38Z</time>
      </trkpt>
      <trkpt lat="44.90965" lon="3.50602">
        <ele>1141</ele>
        <time>2012-09-08T09:22:11Z</time>
      </trkpt>
      <trkpt lat="44.90965" lon="3.50593">
        <ele>1156</ele>
        <time>2012-09-08T09:22:36Z</time>
      </trkpt>
      <trkpt lat="44.90966" lon="3.50595">
        <ele>1140</ele>
        <time>2012-09-08T09:22:56Z</time>
      </trkpt>
      <trkpt lat="44.90964" lon="3.50593">
        <ele>1140</ele>
        <time>2012-09-08T09:23:36Z</time>
      </trkpt>
      <trkpt lat="44.90968" lon="3.50593">
        <ele>1155</ele>
        <time>2012-09-08T09:23:56Z</time>
      </trkpt>
      <trkpt lat="44.90969" lon="3.50593">
        <ele>1151</ele>
        <time>2012-09-08T09:24:44Z</time>
      </trkpt>
      <trkpt lat="44.90968" lon="3.50589">
        <ele>1151</ele>
        <time>2012-09-08T09:25:28Z</time>
      </trkpt>
      <trkpt lat="44.90969" lon="3.50592">
        <ele>1158</ele>
        <time>2012-09-08T09:25:45Z</time>
      </trkpt>
      <trkpt lat="44.90971" lon="3.50596">
        <ele>1156</ele>
        <time>2012-09-08T09:25:59Z</time>
      </trkpt>
      <trkpt lat="44.90973" lon="3.50598">
        <ele>1157</ele>
        <time>2012-09-08T09:26:21Z</time>
      </trkpt>
      <trkpt lat="44.90971" lon="3.50592">
        <ele>1157</ele>
        <time>2012-09-08T09:26:50Z</time>
      </trkpt>
      <trkpt lat="44.90971" lon="3.50591">
        <ele>1168</ele>
        <time>2012-09-08T09:27:17Z</time>
      </trkpt>
      <trkpt lat="44.90973" lon="3.50589">
        <ele>1164</ele>
        <time>2012-09-08T09:27:28Z</time>
      </trkpt>
      <trkpt lat="44.90968" lon="3.50586">
        <ele>1157</ele>
        <time>2012-09-08T09:27:52Z</time>
      </trkpt>
      <trkpt lat="44.90969" lon="3.50589">
        <ele>1154</ele>
        <time>2012-09-08T09:28:14Z</time>
      </trkpt>
      <trkpt lat="44.90971" lon="3.50593">
        <ele>1166</ele>
        <time>2012-09-08T09:30:19Z</time>
      </trkpt>
      <trkpt lat="44.90969" lon="3.5059">
        <ele>1157</ele>
        <time>2012-09-08T09:30:42Z</time>
      </trkpt>
      <trkpt lat="44.90972" lon="3.50593">
        <ele>1169</ele>
        <time>2012-09-08T09:30:56Z</time>
      </trkpt>
      <trkpt lat="44.90972" lon="3.5059">
        <ele>1168</ele>
        <time>2012-09-08T09:31:50Z</time>
      </trkpt>
      <trkpt lat="44.90971" lon="3.50586">
        <ele>1167</ele>
        <time>2012-09-08T09:32:04Z</time>
      </trkpt>
      <trkpt lat="44.90969" lon="3.5059">
        <ele>1158</ele>
        <time>2012-09-08T09:33:03Z</time>
      </trkpt>
      <trkpt lat="44.90966" lon="3.50589">
        <ele>1143</ele>
        <time>2012-09-08T09:36:32Z</time>
      </trkpt>
      <trkpt lat="44.90968" lon="3.50592">
        <ele>1146</ele>
        <time>2012-09-08T09:38:30Z</time>
      </trkpt>
      <trkpt lat="44.90965" lon="3.50593">
        <ele>1139</ele>
        <time>2012-09-08T09:39:05Z</time>
      </trkpt>
      <trkpt lat="44.90965" lon="3.50598">
        <ele>1140</ele>
        <time>2012-09-08T09:39:27Z</time>
      </trkpt>
      <trkpt lat="44.90966" lon="3.50602">
        <ele>1143</ele>
        <time>2012-09-08T09:40:05Z</time>
      </trkpt>
      <trkpt lat="44.90968" lon="3.50599">
        <ele>1152</ele>
        <time>2012-09-08T09:40:21Z</time>
      </trkpt>
      <trkpt lat="44.90967" lon="3.50595">
        <ele>1142</ele>
        <time>2012-09-08T09:41:03Z</time>
      </trkpt>
      <trkpt lat="44.90964" lon="3.50593">
        <ele>1137</ele>
        <time>2012-09-08T09:41:31Z</time>
      </trkpt>
      <trkpt lat="44.90967" lon="3.50593">
        <ele>1140</ele>
        <time>2012-09-08T09:45:23Z</time>
      </trkpt>
      <trkpt lat="44.90965" lon="3.5059">
        <ele>1155</ele>
        <time>2012-09-08T09:45:58Z</time>
      </trkpt>
      <trkpt lat="44.90965" lon="3.50594">
        <ele>1155</ele>
        <time>2012-09-08T09:46:25Z</time>
      </trkpt>
      <trkpt lat="44.90967" lon="3.50595">
        <ele>1149</ele>
        <time>2012-09-08T09:46:40Z</time>
      </trkpt>
      <trkpt lat="44.90968" lon="3.50591">
        <ele>1147</ele>
        <time>2012-09-08T09:46:58Z</time>
      </trkpt>
      <trkpt lat="44.90963" lon="3.5058">
        <ele>1152</ele>
        <time>2012-09-08T09:47:10Z</time>
      </trkpt>
      <trkpt lat="44.90959" lon="3.50565">
        <ele>1152</ele>
        <time>2012-09-08T09:47:21Z</time>
      </trkpt>
      <trkpt lat="44.90971" lon="3.50557">
        <ele>1152</ele>
        <time>2012-09-08T09:47:32Z</time>
      </trkpt>
      <trkpt lat="44.90987" lon="3.50561">
        <ele>1151</ele>
        <time>2012-09-08T09:47:43Z</time>
      </trkpt>
      <trkpt lat="44.91002" lon="3.50553">
        <ele>1149</ele>
        <time>2012-09-08T09:47:55Z</time>
      </trkpt>
      <trkpt lat="44.90999" lon="3.50538">
        <ele>1141</ele>
        <time>2012-09-08T09:48:09Z</time>
      </trkpt>
      <trkpt lat="44.90994" lon="3.50539">
        <ele>1133</ele>
        <time>2012-09-08T09:48:24Z</time>
      </trkpt>
      <trkpt lat="44.90998" lon="3.50532">
        <ele>1135</ele>
        <time>2012-09-08T09:48:38Z</time>
      </trkpt>
      <trkpt lat="44.90999" lon="3.50536">
        <ele>1150</ele>
        <time>2012-09-08T09:49:01Z</time>
      </trkpt>
      <trkpt lat="44.91001" lon="3.50532">
        <ele>1156</ele>
        <time>2012-09-08T09:49:12Z</time>
      </trkpt>
      <trkpt lat="44.90999" lon="3.50526">
        <ele>1158</ele>
        <time>2012-09-08T09:49:47Z</time>
      </trkpt>
      <trkpt lat="44.90993" lon="3.5052">
        <ele>1158</ele>
        <time>2012-09-08T09:49:59Z</time>
      </trkpt>
      <trkpt lat="44.90979" lon="3.50519">
        <ele>1150</ele>
        <time>2012-09-08T09:50:10Z</time>
      </trkpt>
      <trkpt lat="44.90964" lon="3.50505">
        <ele>1143</ele>
        <time>2012-09-08T09:50:22Z</time>
      </trkpt>
      <trkpt lat="44.90958" lon="3.50496">
        <ele>1141</ele>
        <time>2012-09-08T09:50:33Z</time>
      </trkpt>
      <trkpt lat="44.90954" lon="3.5048">
        <ele>1153</ele>
        <time>2012-09-08T09:50:45Z</time>
      </trkpt>
      <trkpt lat="44.90955" lon="3.50461">
        <ele>1156</ele>
        <time>2012-09-08T09:50:56Z</time>
      </trkpt>
      <trkpt lat="44.90962" lon="3.50444">
        <ele>1145</ele>
        <time>2012-09-08T09:51:07Z</time>
      </trkpt>
      <trkpt lat="44.90966" lon="3.50424">
        <ele>1147</ele>
        <time>2012-09-08T09:51:20Z</time>
      </trkpt>
      <trkpt lat="44.90962" lon="3.50398">
        <ele>1148</ele>
        <time>2012-09-08T09:51:39Z</time>
      </trkpt>
      <trkpt lat="44.90951" lon="3.50385">
        <ele>1152</ele>
        <time>2012-09-08T09:51:51Z</time>
      </trkpt>
      <trkpt lat="44.9094" lon="3.50378">
        <ele>1155</ele>
        <time>2012-09-08T09:52:01Z</time>
      </trkpt>
      <trkpt lat="44.90932" lon="3.50383">
        <ele>1156</ele>
        <time>2012-09-08T09:52:12Z</time>
      </trkpt>
      <trkpt lat="44.9092" lon="3.50379">
        <ele>1153</ele>
        <time>2012-09-08T09:52:24Z</time>
      </trkpt>
      <trkpt lat="44.90906" lon="3.50379">
        <ele>1158</ele>
        <time>2012-09-08T09:52:35Z</time>
      </trkpt>
      <trkpt lat="44.90892" lon="3.50371">
        <ele>1149</ele>
        <time>2012-09-08T09:52:46Z</time>
      </trkpt>
      <trkpt lat="44.90878" lon="3.50354">
        <ele>1165</ele>
        <time>2012-09-08T09:52:58Z</time>
      </trkpt>
      <trkpt lat="44.90871" lon="3.50337">
        <ele>1157</ele>
        <time>2012-09-08T09:53:10Z</time>
      </trkpt>
      <trkpt lat="44.90863" lon="3.50323">
        <ele>1155</ele>
        <time>2012-09-08T09:53:20Z</time>
      </trkpt>
      <trkpt lat="44.90857" lon="3.50303">
        <ele>1158</ele>
        <time>2012-09-08T09:53:32Z</time>
      </trkpt>
      <trkpt lat="44.90852" lon="3.50286">
        <ele>1156</ele>
        <time>2012-09-08T09:53:43Z</time>
      </trkpt>
      <trkpt lat="44.90844" lon="3.50277">
        <ele>1155</ele>
        <time>2012-09-08T09:53:53Z</time>
      </trkpt>
      <trkpt lat="44.90839" lon="3.50261">
        <ele>1159</ele>
        <time>2012-09-08T09:54:07Z</time>
      </trkpt>
      <trkpt lat="44.90835" lon="3.5025">
        <ele>1156</ele>
        <time>2012-09-08T09:54:17Z</time>
      </trkpt>
      <trkpt lat="44.90825" lon="3.50236">
        <ele>1154</ele>
        <time>2012-09-08T09:54:28Z</time>
      </trkpt>
      <trkpt lat="44.90812" lon="3.50224">
        <ele>1152</ele>
        <time>2012-09-08T09:54:38Z</time>
      </trkpt>
      <trkpt lat="44.90795" lon="3.5022">
        <ele>1151</ele>
        <time>2012-09-08T09:54:52Z</time>
      </trkpt>
      <trkpt lat="44.90786" lon="3.50212">
        <ele>1153</ele>
        <time>2012-09-08T09:55:02Z</time>
      </trkpt>
      <trkpt lat="44.90776" lon="3.502">
        <ele>1151</ele>
        <time>2012-09-08T09:55:12Z</time>
      </trkpt>
      <trkpt lat="44.90757" lon="3.50197">
        <ele>1145</ele>
        <time>2012-09-08T09:55:24Z</time>
      </trkpt>
      <trkpt lat="44.90742" lon="3.50192">
        <ele>1141</ele>
        <time>2012-09-08T09:55:35Z</time>
      </trkpt>
      <trkpt lat="44.90726" lon="3.50188">
        <ele>1154</ele>
        <time>2012-09-08T09:55:46Z</time>
      </trkpt>
      <trkpt lat="44.90717" lon="3.50188">
        <ele>1154</ele>
        <time>2012-09-08T09:55:57Z</time>
      </trkpt>
      <trkpt lat="44.90701" lon="3.50188">
        <ele>1150</ele>
        <time>2012-09-08T09:56:08Z</time>
      </trkpt>
      <trkpt lat="44.90692" lon="3.50186">
        <ele>1146</ele>
        <time>2012-09-08T09:56:29Z</time>
      </trkpt>
      <trkpt lat="44.90679" lon="3.50185">
        <ele>1138</ele>
        <time>2012-09-08T09:56:41Z</time>
      </trkpt>
      <trkpt lat="44.90664" lon="3.5019">
        <ele>1144</ele>
        <time>2012-09-08T09:56:53Z</time>
      </trkpt>
      <trkpt lat="44.90649" lon="3.50197">
        <ele>1143</ele>
        <time>2012-09-08T09:57:05Z</time>
      </trkpt>
      <trkpt lat="44.9064" lon="3.50198">
        <ele>1148</ele>
        <time>2012-09-08T09:57:15Z</time>
      </trkpt>
      <trkpt lat="44.90627" lon="3.50193">
        <ele>1151</ele>
        <time>2012-09-08T09:57:27Z</time>
      </trkpt>
      <trkpt lat="44.90615" lon="3.50195">
        <ele>1146</ele>
        <time>2012-09-08T09:57:37Z</time>
      </trkpt>
      <trkpt lat="44.90601" lon="3.50189">
        <ele>1138</ele>
        <time>2012-09-08T09:57:48Z</time>
      </trkpt>
      <trkpt lat="44.90586" lon="3.50197">
        <ele>1131</ele>
        <time>2012-09-08T09:57:58Z</time>
      </trkpt>
      <trkpt lat="44.90575" lon="3.50204">
        <ele>1144</ele>
        <time>2012-09-08T09:58:09Z</time>
      </trkpt>
      <trkpt lat="44.90561" lon="3.50212">
        <ele>1144</ele>
        <time>2012-09-08T09:58:21Z</time>
      </trkpt>
      <trkpt lat="44.90548" lon="3.50214">
        <ele>1146</ele>
        <time>2012-09-08T09:58:33Z</time>
      </trkpt>
      <trkpt lat="44.90544" lon="3.50215">
        <ele>1146</ele>
        <time>2012-09-08T09:58:44Z</time>
      </trkpt>
      <trkpt lat="44.90527" lon="3.50212">
        <ele>1148</ele>
        <time>2012-09-08T09:58:57Z</time>
      </trkpt>
      <trkpt lat="44.90511" lon="3.50205">
        <ele>1148</ele>
        <time>2012-09-08T09:59:09Z</time>
      </trkpt>
      <trkpt lat="44.90495" lon="3.50203">
        <ele>1144</ele>
        <time>2012-09-08T09:59:20Z</time>
      </trkpt>
      <trkpt lat="44.90483" lon="3.50201">
        <ele>1149</ele>
        <time>2012-09-08T09:59:31Z</time>
      </trkpt>
      <trkpt lat="44.90469" lon="3.50198">
        <ele>1146</ele>
        <time>2012-09-08T09:59:42Z</time>
      </trkpt>
      <trkpt lat="44.9046" lon="3.50197">
        <ele>1148</ele>
        <time>2012-09-08T09:59:53Z</time>
      </trkpt>
      <trkpt lat="44.90455" lon="3.50198">
        <ele>1145</ele>
        <time>2012-09-08T10:00:04Z</time>
      </trkpt>
      <trkpt lat="44.9045" lon="3.50208">
        <ele>1148</ele>
        <time>2012-09-08T10:00:14Z</time>
      </trkpt>
      <trkpt lat="44.90442" lon="3.50216">
        <ele>1151</ele>
        <time>2012-09-08T10:00:27Z</time>
      </trkpt>
      <trkpt lat="44.90429" lon="3.50219">
        <ele>1146</ele>
        <time>2012-09-08T10:00:39Z</time>
      </trkpt>
      <trkpt lat="44.90413" lon="3.5021">
        <ele>1148</ele>
        <time>2012-09-08T10:00:49Z</time>
      </trkpt>
      <trkpt lat="44.90395" lon="3.50198">
        <ele>1150</ele>
        <time>2012-09-08T10:00:59Z</time>
      </trkpt>
      <trkpt lat="44.90374" lon="3.5019">
        <ele>1151</ele>
        <time>2012-09-08T10:01:12Z</time>
      </trkpt>
      <trkpt lat="44.90366" lon="3.50192">
        <ele>1156</ele>
        <time>2012-09-08T10:01:24Z</time>
      </trkpt>
      <trkpt lat="44.90348" lon="3.50185">
        <ele>1160</ele>
        <time>2012-09-08T10:01:35Z</time>
      </trkpt>
      <trkpt lat="44.90331" lon="3.50168">
        <ele>1157</ele>
        <time>2012-09-08T10:01:45Z</time>
      </trkpt>
      <trkpt lat="44.90326" lon="3.50144">
        <ele>1161</ele>
        <time>2012-09-08T10:01:58Z</time>
      </trkpt>
      <trkpt lat="44.90318" lon="3.50126">
        <ele>1158</ele>
        <time>2012-09-08T10:02:08Z</time>
      </trkpt>
      <trkpt lat="44.90313" lon="3.50109">
        <ele>1156</ele>
        <time>2012-09-08T10:02:18Z</time>
      </trkpt>
      <trkpt lat="44.90306" lon="3.50096">
        <ele>1152</ele>
        <time>2012-09-08T10:02:28Z</time>
      </trkpt>
      <trkpt lat="44.90288" lon="3.50083">
        <ele>1141</ele>
        <time>2012-09-08T10:02:40Z</time>
      </trkpt>
      <trkpt lat="44.90271" lon="3.50075">
        <ele>1137</ele>
        <time>2012-09-08T10:02:50Z</time>
      </trkpt>
      <trkpt lat="44.90254" lon="3.50074">
        <ele>1145</ele>
        <time>2012-09-08T10:03:00Z</time>
      </trkpt>
      <trkpt lat="44.90237" lon="3.5007">
        <ele>1128</ele>
        <time>2012-09-08T10:03:14Z</time>
      </trkpt>
      <trkpt lat="44.90227" lon="3.50067">
        <ele>1132</ele>
        <time>2012-09-08T10:03:25Z</time>
      </trkpt>
      <trkpt lat="44.90218" lon="3.5007">
        <ele>1143</ele>
        <time>2012-09-08T10:03:37Z</time>
      </trkpt>
      <trkpt lat="44.90206" lon="3.50065">
        <ele>1144</ele>
        <time>2012-09-08T10:03:49Z</time>
      </trkpt>
      <trkpt lat="44.90199" lon="3.50063">
        <ele>1142</ele>
        <time>2012-09-08T10:04:01Z</time>
      </trkpt>
      <trkpt lat="44.9019" lon="3.50062">
        <ele>1145</ele>
        <time>2012-09-08T10:04:11Z</time>
      </trkpt>
      <trkpt lat="44.90176" lon="3.50057">
        <ele>1152</ele>
        <time>2012-09-08T10:04:23Z</time>
      </trkpt>
      <trkpt lat="44.90178" lon="3.50062">
        <ele>1143</ele>
        <time>2012-09-08T10:04:34Z</time>
      </trkpt>
      <trkpt lat="44.90179" lon="3.50076">
        <ele>1145</ele>
        <time>2012-09-08T10:04:47Z</time>
      </trkpt>
      <trkpt lat="44.90183" lon="3.50083">
        <ele>1142</ele>
        <time>2012-09-08T10:05:02Z</time>
      </trkpt>
      <trkpt lat="44.90186" lon="3.50075">
        <ele>1141</ele>
        <time>2012-09-08T10:05:13Z</time>
      </trkpt>
      <trkpt lat="44.88647" lon="3.49643">
        <ele>1221</ele>
        <time>2012-09-08T12:21:48Z</time>
      </trkpt>
      <trkpt lat="44.88647" lon="3.49644">
        <ele>1199</ele>
        <time>2012-09-08T12:22:17Z</time>
      </trkpt>
      <trkpt lat="44.88652" lon="3.49645">
        <ele>1202</ele>
        <time>2012-09-08T12:23:30Z</time>
      </trkpt>
      <trkpt lat="44.88672" lon="3.49654">
        <ele>1207</ele>
        <time>2012-09-08T12:23:54Z</time>
      </trkpt>
      <trkpt lat="44.88668" lon="3.49654">
        <ele>1208</ele>
        <time>2012-09-08T12:24:12Z</time>
      </trkpt>
      <trkpt lat="44.88667" lon="3.49658">
        <ele>1203</ele>
        <time>2012-09-08T12:24:24Z</time>
      </trkpt>
      <trkpt lat="44.88665" lon="3.4965">
        <ele>1211</ele>
        <time>2012-09-08T12:24:35Z</time>
      </trkpt>
      <trkpt lat="44.88664" lon="3.49654">
        <ele>1193</ele>
        <time>2012-09-08T12:25:05Z</time>
      </trkpt>
      <trkpt lat="44.88652" lon="3.49662">
        <ele>1194</ele>
        <time>2012-09-08T12:25:16Z</time>
      </trkpt>
      <trkpt lat="44.88643" lon="3.49668">
        <ele>1189</ele>
        <time>2012-09-08T12:25:26Z</time>
      </trkpt>
      <trkpt lat="44.8863" lon="3.49673">
        <ele>1203</ele>
        <time>2012-09-08T12:25:37Z</time>
      </trkpt>
      <trkpt lat="44.88616" lon="3.49678">
        <ele>1196</ele>
        <time>2012-09-08T12:25:48Z</time>
      </trkpt>
      <trkpt lat="44.88603" lon="3.49685">
        <ele>1200</ele>
        <time>2012-09-08T12:26:01Z</time>
      </trkpt>
      <trkpt lat="44.8859" lon="3.49685">
        <ele>1201</ele>
        <time>2012-09-08T12:26:14Z</time>
      </trkpt>
      <trkpt lat="44.88575" lon="3.49685">
        <ele>1197</ele>
        <time>2012-09-08T12:26:26Z</time>
      </trkpt>
      <trkpt lat="44.88565" lon="3.49685">
        <ele>1202</ele>
        <time>2012-09-08T12:26:36Z</time>
      </trkpt>
      <trkpt lat="44.88552" lon="3.49683">
        <ele>1201</ele>
        <time>2012-09-08T12:26:48Z</time>
      </trkpt>
      <trkpt lat="44.88539" lon="3.49681">
        <ele>1198</ele>
        <time>2012-09-08T12:26:59Z</time>
      </trkpt>
      <trkpt lat="44.88526" lon="3.49679">
        <ele>1198</ele>
        <time>2012-09-08T12:27:10Z</time>
      </trkpt>
      <trkpt lat="44.88513" lon="3.49678">
        <ele>1196</ele>
        <time>2012-09-08T12:27:21Z</time>
      </trkpt>
      <trkpt lat="44.88501" lon="3.49676">
        <ele>1198</ele>
        <time>2012-09-08T12:27:32Z</time>
      </trkpt>
      <trkpt lat="44.88485" lon="3.49674">
        <ele>1197</ele>
        <time>2012-09-08T12:27:44Z</time>
      </trkpt>
      <trkpt lat="44.88472" lon="3.49673">
        <ele>1198</ele>
        <time>2012-09-08T12:27:56Z</time>
      </trkpt>
      <trkpt lat="44.88459" lon="3.49672">
        <ele>1192</ele>
        <time>2012-09-08T12:28:08Z</time>
      </trkpt>
      <trkpt lat="44.88445" lon="3.49672">
        <ele>1202</ele>
        <time>2012-09-08T12:28:19Z</time>
      </trkpt>
      <trkpt lat="44.88435" lon="3.49672">
        <ele>1200</ele>
        <time>2012-09-08T12:28:29Z</time>
      </trkpt>
      <trkpt lat="44.88419" lon="3.49677">
        <ele>1194</ele>
        <time>2012-09-08T12:28:40Z</time>
      </trkpt>
      <trkpt lat="44.88406" lon="3.49681">
        <ele>1191</ele>
        <time>2012-09-08T12:28:51Z</time>
      </trkpt>
      <trkpt lat="44.88397" lon="3.49692">
        <ele>1190</ele>
        <time>2012-09-08T12:29:03Z</time>
      </trkpt>
      <trkpt lat="44.88387" lon="3.49707">
        <ele>1193</ele>
        <time>2012-09-08T12:29:14Z</time>
      </trkpt>
      <trkpt lat="44.88379" lon="3.49722">
        <ele>1201</ele>
        <time>2012-09-08T12:29:25Z</time>
      </trkpt>
      <trkpt lat="44.88373" lon="3.49737">
        <ele>1191</ele>
        <time>2012-09-08T12:29:36Z</time>
      </trkpt>
      <trkpt lat="44.88368" lon="3.49748">
        <ele>1196</ele>
        <time>2012-09-08T12:29:46Z</time>
      </trkpt>
      <trkpt lat="44.8836" lon="3.49764">
        <ele>1199</ele>
        <time>2012-09-08T12:29:56Z</time>
      </trkpt>
      <trkpt lat="44.88351" lon="3.49778">
        <ele>1191</ele>
        <time>2012-09-08T12:30:08Z</time>
      </trkpt>
      <trkpt lat="44.88345" lon="3.49794">
        <ele>1196</ele>
        <time>2012-09-08T12:30:20Z</time>
      </trkpt>
      <trkpt lat="44.88338" lon="3.4981">
        <ele>1198</ele>
        <time>2012-09-08T12:30:31Z</time>
      </trkpt>
      <trkpt lat="44.88332" lon="3.49826">
        <ele>1197</ele>
        <time>2012-09-08T12:30:43Z</time>
      </trkpt>
      <trkpt lat="44.88322" lon="3.49839">
        <ele>1190</ele>
        <time>2012-09-08T12:30:54Z</time>
      </trkpt>
      <trkpt lat="44.88309" lon="3.49853">
        <ele>1191</ele>
        <time>2012-09-08T12:31:07Z</time>
      </trkpt>
      <trkpt lat="44.88299" lon="3.49865">
        <ele>1189</ele>
        <time>2012-09-08T12:31:17Z</time>
      </trkpt>
      <trkpt lat="44.88289" lon="3.49876">
        <ele>1190</ele>
        <time>2012-09-08T12:31:30Z</time>
      </trkpt>
      <trkpt lat="44.88276" lon="3.49884">
        <ele>1190</ele>
        <time>2012-09-08T12:31:43Z</time>
      </trkpt>
      <trkpt lat="44.88263" lon="3.49891">
        <ele>1196</ele>
        <time>2012-09-08T12:31:55Z</time>
      </trkpt>
      <trkpt lat="44.88248" lon="3.49899">
        <ele>1190</ele>
        <time>2012-09-08T12:32:06Z</time>
      </trkpt>
      <trkpt lat="44.88236" lon="3.49902">
        <ele>1187</ele>
        <time>2012-09-08T12:32:18Z</time>
      </trkpt>
      <trkpt lat="44.88222" lon="3.49905">
        <ele>1194</ele>
        <time>2012-09-08T12:32:29Z</time>
      </trkpt>
      <trkpt lat="44.88209" lon="3.49905">
        <ele>1184</ele>
        <time>2012-09-08T12:32:40Z</time>
      </trkpt>
      <trkpt lat="44.88199" lon="3.49902">
        <ele>1188</ele>
        <time>2012-09-08T12:32:51Z</time>
      </trkpt>
      <trkpt lat="44.8819" lon="3.49895">
        <ele>1188</ele>
        <time>2012-09-08T12:33:02Z</time>
      </trkpt>
      <trkpt lat="44.88179" lon="3.49895">
        <ele>1194</ele>
        <time>2012-09-08T12:33:13Z</time>
      </trkpt>
      <trkpt lat="44.8817" lon="3.49897">
        <ele>1185</ele>
        <time>2012-09-08T12:33:23Z</time>
      </trkpt>
      <trkpt lat="44.88153" lon="3.49905">
        <ele>1179</ele>
        <time>2012-09-08T12:33:39Z</time>
      </trkpt>
      <trkpt lat="44.88142" lon="3.49914">
        <ele>1183</ele>
        <time>2012-09-08T12:33:51Z</time>
      </trkpt>
      <trkpt lat="44.88132" lon="3.49918">
        <ele>1176</ele>
        <time>2012-09-08T12:34:02Z</time>
      </trkpt>
      <trkpt lat="44.88123" lon="3.49922">
        <ele>1179</ele>
        <time>2012-09-08T12:34:12Z</time>
      </trkpt>
      <trkpt lat="44.8811" lon="3.49934">
        <ele>1179</ele>
        <time>2012-09-08T12:34:25Z</time>
      </trkpt>
      <trkpt lat="44.88098" lon="3.49939">
        <ele>1182</ele>
        <time>2012-09-08T12:34:36Z</time>
      </trkpt>
      <trkpt lat="44.88095" lon="3.49939">
        <ele>1183</ele>
        <time>2012-09-08T12:34:50Z</time>
      </trkpt>
      <trkpt lat="44.88083" lon="3.49929">
        <ele>1180</ele>
        <time>2012-09-08T12:35:02Z</time>
      </trkpt>
      <trkpt lat="44.88071" lon="3.49928">
        <ele>1181</ele>
        <time>2012-09-08T12:35:14Z</time>
      </trkpt>
      <trkpt lat="44.88062" lon="3.49929">
        <ele>1180</ele>
        <time>2012-09-08T12:35:24Z</time>
      </trkpt>
      <trkpt lat="44.88053" lon="3.49932">
        <ele>1175</ele>
        <time>2012-09-08T12:35:34Z</time>
      </trkpt>
      <trkpt lat="44.88044" lon="3.49935">
        <ele>1173</ele>
        <time>2012-09-08T12:35:44Z</time>
      </trkpt>
      <trkpt lat="44.88034" lon="3.49936">
        <ele>1171</ele>
        <time>2012-09-08T12:35:57Z</time>
      </trkpt>
      <trkpt lat="44.88028" lon="3.49942">
        <ele>1165</ele>
        <time>2012-09-08T12:36:09Z</time>
      </trkpt>
      <trkpt lat="44.88023" lon="3.49958">
        <ele>1158</ele>
        <time>2012-09-08T12:36:20Z</time>
      </trkpt>
      <trkpt lat="44.88019" lon="3.49975">
        <ele>1164</ele>
        <time>2012-09-08T12:36:31Z</time>
      </trkpt>
      <trkpt lat="44.8802" lon="3.49988">
        <ele>1165</ele>
        <time>2012-09-08T12:36:41Z</time>
      </trkpt>
      <trkpt lat="44.88016" lon="3.50005">
        <ele>1160</ele>
        <time>2012-09-08T12:36:54Z</time>
      </trkpt>
      <trkpt lat="44.8801" lon="3.50009">
        <ele>1160</ele>
        <time>2012-09-08T12:37:04Z</time>
      </trkpt>
      <trkpt lat="44.88004" lon="3.50006">
        <ele>1161</ele>
        <time>2012-09-08T12:37:14Z</time>
      </trkpt>
      <trkpt lat="44.87993" lon="3.49997">
        <ele>1153</ele>
        <time>2012-09-08T12:37:27Z</time>
      </trkpt>
      <trkpt lat="44.87981" lon="3.49999">
        <ele>1149</ele>
        <time>2012-09-08T12:37:40Z</time>
      </trkpt>
      <trkpt lat="44.87974" lon="3.50005">
        <ele>1143</ele>
        <time>2012-09-08T12:37:50Z</time>
      </trkpt>
      <trkpt lat="44.87963" lon="3.5001">
        <ele>1142</ele>
        <time>2012-09-08T12:38:02Z</time>
      </trkpt>
      <trkpt lat="44.87954" lon="3.50012">
        <ele>1151</ele>
        <time>2012-09-08T12:38:12Z</time>
      </trkpt>
      <trkpt lat="44.87944" lon="3.50017">
        <ele>1150</ele>
        <time>2012-09-08T12:38:22Z</time>
      </trkpt>
      <trkpt lat="44.87933" lon="3.50018">
        <ele>1148</ele>
        <time>2012-09-08T12:38:32Z</time>
      </trkpt>
      <trkpt lat="44.8792" lon="3.50017">
        <ele>1142</ele>
        <time>2012-09-08T12:38:43Z</time>
      </trkpt>
      <trkpt lat="44.87904" lon="3.50022">
        <ele>1135</ele>
        <time>2012-09-08T12:38:56Z</time>
      </trkpt>
      <trkpt lat="44.87889" lon="3.50024">
        <ele>1139</ele>
        <time>2012-09-08T12:39:09Z</time>
      </trkpt>
      <trkpt lat="44.87877" lon="3.50016">
        <ele>1141</ele>
        <time>2012-09-08T12:39:22Z</time>
      </trkpt>
      <trkpt lat="44.87865" lon="3.50009">
        <ele>1137</ele>
        <time>2012-09-08T12:39:33Z</time>
      </trkpt>
      <trkpt lat="44.87851" lon="3.50004">
        <ele>1135</ele>
        <time>2012-09-08T12:39:46Z</time>
      </trkpt>
      <trkpt lat="44.87838" lon="3.50003">
        <ele>1131</ele>
        <time>2012-09-08T12:39:58Z</time>
      </trkpt>
      <trkpt lat="44.87835" lon="3.50005">
        <ele>1128</ele>
        <time>2012-09-08T12:40:08Z</time>
      </trkpt>
      <trkpt lat="44.87828" lon="3.50019">
        <ele>1130</ele>
        <time>2012-09-08T12:40:22Z</time>
      </trkpt>
      <trkpt lat="44.87827" lon="3.50024">
        <ele>1136</ele>
        <time>2012-09-08T12:40:35Z</time>
      </trkpt>
      <trkpt lat="44.8782" lon="3.50039">
        <ele>1140</ele>
        <time>2012-09-08T12:40:48Z</time>
      </trkpt>
      <trkpt lat="44.87814" lon="3.50049">
        <ele>1141</ele>
        <time>2012-09-08T12:40:59Z</time>
      </trkpt>
      <trkpt lat="44.8781" lon="3.5006">
        <ele>1131</ele>
        <time>2012-09-08T12:41:10Z</time>
      </trkpt>
      <trkpt lat="44.87806" lon="3.50077">
        <ele>1138</ele>
        <time>2012-09-08T12:41:21Z</time>
      </trkpt>
      <trkpt lat="44.87803" lon="3.50095">
        <ele>1140</ele>
        <time>2012-09-08T12:41:33Z</time>
      </trkpt>
      <trkpt lat="44.87796" lon="3.50113">
        <ele>1145</ele>
        <time>2012-09-08T12:41:45Z</time>
      </trkpt>
      <trkpt lat="44.8779" lon="3.50128">
        <ele>1143</ele>
        <time>2012-09-08T12:41:58Z</time>
      </trkpt>
      <trkpt lat="44.87778" lon="3.50134">
        <ele>1150</ele>
        <time>2012-09-08T12:42:10Z</time>
      </trkpt>
      <trkpt lat="44.87771" lon="3.50125">
        <ele>1142</ele>
        <time>2012-09-08T12:42:22Z</time>
      </trkpt>
      <trkpt lat="44.87764" lon="3.50117">
        <ele>1163</ele>
        <time>2012-09-08T12:42:34Z</time>
      </trkpt>
      <trkpt lat="44.8775" lon="3.50114">
        <ele>1151</ele>
        <time>2012-09-08T12:42:47Z</time>
      </trkpt>
      <trkpt lat="44.8774" lon="3.50113">
        <ele>1157</ele>
        <time>2012-09-08T12:43:00Z</time>
      </trkpt>
      <trkpt lat="44.87728" lon="3.50119">
        <ele>1154</ele>
        <time>2012-09-08T12:43:12Z</time>
      </trkpt>
      <trkpt lat="44.87723" lon="3.50129">
        <ele>1155</ele>
        <time>2012-09-08T12:43:24Z</time>
      </trkpt>
      <trkpt lat="44.87716" lon="3.50139">
        <ele>1160</ele>
        <time>2012-09-08T12:43:34Z</time>
      </trkpt>
      <trkpt lat="44.87714" lon="3.50142">
        <ele>1164</ele>
        <time>2012-09-08T12:43:49Z</time>
      </trkpt>
      <trkpt lat="44.87705" lon="3.50148">
        <ele>1165</ele>
        <time>2012-09-08T12:44:00Z</time>
      </trkpt>
      <trkpt lat="44.87694" lon="3.50156">
        <ele>1162</ele>
        <time>2012-09-08T12:44:13Z</time>
      </trkpt>
      <trkpt lat="44.87683" lon="3.50164">
        <ele>1155</ele>
        <time>2012-09-08T12:44:24Z</time>
      </trkpt>
      <trkpt lat="44.87672" lon="3.50173">
        <ele>1161</ele>
        <time>2012-09-08T12:44:36Z</time>
      </trkpt>
      <trkpt lat="44.87658" lon="3.50182">
        <ele>1164</ele>
        <time>2012-09-08T12:44:48Z</time>
      </trkpt>
      <trkpt lat="44.87645" lon="3.50188">
        <ele>1160</ele>
        <time>2012-09-08T12:45:01Z</time>
      </trkpt>
      <trkpt lat="44.87635" lon="3.50192">
        <ele>1169</ele>
        <time>2012-09-08T12:45:12Z</time>
      </trkpt>
      <trkpt lat="44.87622" lon="3.50196">
        <ele>1168</ele>
        <time>2012-09-08T12:45:24Z</time>
      </trkpt>
      <trkpt lat="44.87609" lon="3.50198">
        <ele>1160</ele>
        <time>2012-09-08T12:45:35Z</time>
      </trkpt>
      <trkpt lat="44.87599" lon="3.50204">
        <ele>1165</ele>
        <time>2012-09-08T12:45:47Z</time>
      </trkpt>
      <trkpt lat="44.87591" lon="3.5021">
        <ele>1166</ele>
        <time>2012-09-08T12:45:57Z</time>
      </trkpt>
      <trkpt lat="44.87582" lon="3.50218">
        <ele>1163</ele>
        <time>2012-09-08T12:46:07Z</time>
      </trkpt>
      <trkpt lat="44.87573" lon="3.50229">
        <ele>1164</ele>
        <time>2012-09-08T12:46:40Z</time>
      </trkpt>
      <trkpt lat="44.87562" lon="3.50239">
        <ele>1170</ele>
        <time>2012-09-08T12:46:54Z</time>
      </trkpt>
      <trkpt lat="44.8755" lon="3.50246">
        <ele>1177</ele>
        <time>2012-09-08T12:47:07Z</time>
      </trkpt>
      <trkpt lat="44.87544" lon="3.50253">
        <ele>1172</ele>
        <time>2012-09-08T12:47:20Z</time>
      </trkpt>
      <trkpt lat="44.87539" lon="3.50256">
        <ele>1177</ele>
        <time>2012-09-08T12:47:30Z</time>
      </trkpt>
      <trkpt lat="44.8753" lon="3.50261">
        <ele>1184</ele>
        <time>2012-09-08T12:47:45Z</time>
      </trkpt>
      <trkpt lat="44.87519" lon="3.50265">
        <ele>1184</ele>
        <time>2012-09-08T12:47:56Z</time>
      </trkpt>
      <trkpt lat="44.87511" lon="3.5027">
        <ele>1184</ele>
        <time>2012-09-08T12:48:06Z</time>
      </trkpt>
      <trkpt lat="44.87502" lon="3.50271">
        <ele>1188</ele>
        <time>2012-09-08T12:48:16Z</time>
      </trkpt>
      <trkpt lat="44.87489" lon="3.50273">
        <ele>1187</ele>
        <time>2012-09-08T12:48:30Z</time>
      </trkpt>
      <trkpt lat="44.8748" lon="3.50276">
        <ele>1189</ele>
        <time>2012-09-08T12:48:41Z</time>
      </trkpt>
      <trkpt lat="44.87469" lon="3.50285">
        <ele>1181</ele>
        <time>2012-09-08T12:48:55Z</time>
      </trkpt>
      <trkpt lat="44.87463" lon="3.5029">
        <ele>1189</ele>
        <time>2012-09-08T12:49:05Z</time>
      </trkpt>
      <trkpt lat="44.87452" lon="3.50296">
        <ele>1195</ele>
        <time>2012-09-08T12:49:16Z</time>
      </trkpt>
      <trkpt lat="44.87444" lon="3.50301">
        <ele>1199</ele>
        <time>2012-09-08T12:49:27Z</time>
      </trkpt>
      <trkpt lat="44.8744" lon="3.50299">
        <ele>1198</ele>
        <time>2012-09-08T12:52:07Z</time>
      </trkpt>
      <trkpt lat="44.87442" lon="3.50295">
        <ele>1196</ele>
        <time>2012-09-08T12:52:17Z</time>
      </trkpt>
      <trkpt lat="44.87449" lon="3.50283">
        <ele>1198</ele>
        <time>2012-09-08T12:52:30Z</time>
      </trkpt>
      <trkpt lat="44.87453" lon="3.50272">
        <ele>1197</ele>
        <time>2012-09-08T12:52:40Z</time>
      </trkpt>
      <trkpt lat="44.8746" lon="3.50254">
        <ele>1194</ele>
        <time>2012-09-08T12:52:54Z</time>
      </trkpt>
      <trkpt lat="44.87463" lon="3.50237">
        <ele>1194</ele>
        <time>2012-09-08T12:53:06Z</time>
      </trkpt>
      <trkpt lat="44.87468" lon="3.5022">
        <ele>1194</ele>
        <time>2012-09-08T12:53:17Z</time>
      </trkpt>
      <trkpt lat="44.8747" lon="3.50202">
        <ele>1191</ele>
        <time>2012-09-08T12:53:28Z</time>
      </trkpt>
      <trkpt lat="44.87467" lon="3.50184">
        <ele>1181</ele>
        <time>2012-09-08T12:53:41Z</time>
      </trkpt>
      <trkpt lat="44.87467" lon="3.5017">
        <ele>1193</ele>
        <time>2012-09-08T12:53:52Z</time>
      </trkpt>
      <trkpt lat="44.87466" lon="3.50155">
        <ele>1185</ele>
        <time>2012-09-08T12:54:02Z</time>
      </trkpt>
      <trkpt lat="44.87467" lon="3.50138">
        <ele>1190</ele>
        <time>2012-09-08T12:54:13Z</time>
      </trkpt>
      <trkpt lat="44.87464" lon="3.50126">
        <ele>1188</ele>
        <time>2012-09-08T12:54:23Z</time>
      </trkpt>
      <trkpt lat="44.87466" lon="3.50105">
        <ele>1191</ele>
        <time>2012-09-08T12:54:35Z</time>
      </trkpt>
      <trkpt lat="44.87465" lon="3.50086">
        <ele>1184</ele>
        <time>2012-09-08T12:54:47Z</time>
      </trkpt>
      <trkpt lat="44.87461" lon="3.50069">
        <ele>1186</ele>
        <time>2012-09-08T12:54:59Z</time>
      </trkpt>
      <trkpt lat="44.87458" lon="3.50048">
        <ele>1190</ele>
        <time>2012-09-08T12:55:12Z</time>
      </trkpt>
      <trkpt lat="44.87454" lon="3.50038">
        <ele>1201</ele>
        <time>2012-09-08T12:55:26Z</time>
      </trkpt>
      <trkpt lat="44.87457" lon="3.50039">
        <ele>1205</ele>
        <time>2012-09-08T12:55:39Z</time>
      </trkpt>
      <trkpt lat="44.87463" lon="3.5004">
        <ele>1193</ele>
        <time>2012-09-08T12:55:49Z</time>
      </trkpt>
      <trkpt lat="44.8746" lon="3.50032">
        <ele>1199</ele>
        <time>2012-09-08T12:55:59Z</time>
      </trkpt>
      <trkpt lat="44.87453" lon="3.50011">
        <ele>1193</ele>
        <time>2012-09-08T12:56:11Z</time>
      </trkpt>
      <trkpt lat="44.87449" lon="3.49996">
        <ele>1187</ele>
        <time>2012-09-08T12:56:21Z</time>
      </trkpt>
      <trkpt lat="44.87445" lon="3.4998">
        <ele>1181</ele>
        <time>2012-09-08T12:56:32Z</time>
      </trkpt>
      <trkpt lat="44.87439" lon="3.49964">
        <ele>1179</ele>
        <time>2012-09-08T12:56:44Z</time>
      </trkpt>
      <trkpt lat="44.87432" lon="3.49949">
        <ele>1183</ele>
        <time>2012-09-08T12:56:56Z</time>
      </trkpt>
      <trkpt lat="44.87428" lon="3.49927">
        <ele>1180</ele>
        <time>2012-09-08T12:57:09Z</time>
      </trkpt>
      <trkpt lat="44.87424" lon="3.49916">
        <ele>1181</ele>
        <time>2012-09-08T12:57:19Z</time>
      </trkpt>
      <trkpt lat="44.87416" lon="3.49901">
        <ele>1175</ele>
        <time>2012-09-08T12:57:30Z</time>
      </trkpt>
      <trkpt lat="44.87406" lon="3.49882">
        <ele>1172</ele>
        <time>2012-09-08T12:57:44Z</time>
      </trkpt>
      <trkpt lat="44.87404" lon="3.49878">
        <ele>1176</ele>
        <time>2012-09-08T12:58:38Z</time>
      </trkpt>
      <trkpt lat="44.87399" lon="3.49865">
        <ele>1176</ele>
        <time>2012-09-08T12:58:48Z</time>
      </trkpt>
      <trkpt lat="44.87392" lon="3.4985">
        <ele>1179</ele>
        <time>2012-09-08T12:59:00Z</time>
      </trkpt>
      <trkpt lat="44.87388" lon="3.49834">
        <ele>1180</ele>
        <time>2012-09-08T12:59:10Z</time>
      </trkpt>
      <trkpt lat="44.87383" lon="3.49817">
        <ele>1186</ele>
        <time>2012-09-08T12:59:21Z</time>
      </trkpt>
      <trkpt lat="44.87376" lon="3.49802">
        <ele>1177</ele>
        <time>2012-09-08T12:59:33Z</time>
      </trkpt>
      <trkpt lat="44.87369" lon="3.49784">
        <ele>1173</ele>
        <time>2012-09-08T12:59:46Z</time>
      </trkpt>
      <trkpt lat="44.87362" lon="3.49768">
        <ele>1181</ele>
        <time>2012-09-08T12:59:59Z</time>
      </trkpt>
      <trkpt lat="44.87356" lon="3.49751">
        <ele>1178</ele>
        <time>2012-09-08T13:00:11Z</time>
      </trkpt>
      <trkpt lat="44.8735" lon="3.49736">
        <ele>1168</ele>
        <time>2012-09-08T13:00:24Z</time>
      </trkpt>
      <trkpt lat="44.87341" lon="3.49722">
        <ele>1177</ele>
        <time>2012-09-08T13:00:34Z</time>
      </trkpt>
      <trkpt lat="44.87331" lon="3.4971">
        <ele>1168</ele>
        <time>2012-09-08T13:00:48Z</time>
      </trkpt>
      <trkpt lat="44.87323" lon="3.49702">
        <ele>1168</ele>
        <time>2012-09-08T13:00:58Z</time>
      </trkpt>
      <trkpt lat="44.87314" lon="3.49689">
        <ele>1169</ele>
        <time>2012-09-08T13:01:10Z</time>
      </trkpt>
      <trkpt lat="44.87309" lon="3.49679">
        <ele>1166</ele>
        <time>2012-09-08T13:01:20Z</time>
      </trkpt>
      <trkpt lat="44.87306" lon="3.49671">
        <ele>1165</ele>
        <time>2012-09-08T13:02:41Z</time>
      </trkpt>
      <trkpt lat="44.87297" lon="3.49657">
        <ele>1163</ele>
        <time>2012-09-08T13:02:54Z</time>
      </trkpt>
      <trkpt lat="44.87286" lon="3.49649">
        <ele>1167</ele>
        <time>2012-09-08T13:03:06Z</time>
      </trkpt>
      <trkpt lat="44.87272" lon="3.49644">
        <ele>1158</ele>
        <time>2012-09-08T13:03:17Z</time>
      </trkpt>
      <trkpt lat="44.87262" lon="3.4964">
        <ele>1159</ele>
        <time>2012-09-08T13:03:28Z</time>
      </trkpt>
      <trkpt lat="44.87248" lon="3.49632">
        <ele>1160</ele>
        <time>2012-09-08T13:03:40Z</time>
      </trkpt>
      <trkpt lat="44.87236" lon="3.49624">
        <ele>1157</ele>
        <time>2012-09-08T13:03:53Z</time>
      </trkpt>
      <trkpt lat="44.87225" lon="3.49615">
        <ele>1155</ele>
        <time>2012-09-08T13:04:05Z</time>
      </trkpt>
      <trkpt lat="44.87217" lon="3.49607">
        <ele>1157</ele>
        <time>2012-09-08T13:04:34Z</time>
      </trkpt>
      <trkpt lat="44.87209" lon="3.49594">
        <ele>1152</ele>
        <time>2012-09-08T13:04:46Z</time>
      </trkpt>
      <trkpt lat="44.87203" lon="3.49579">
        <ele>1159</ele>
        <time>2012-09-08T13:04:56Z</time>
      </trkpt>
      <trkpt lat="44.87201" lon="3.49561">
        <ele>1154</ele>
        <time>2012-09-08T13:05:09Z</time>
      </trkpt>
      <trkpt lat="44.87194" lon="3.49542">
        <ele>1154</ele>
        <time>2012-09-08T13:05:22Z</time>
      </trkpt>
      <trkpt lat="44.87189" lon="3.4953">
        <ele>1153</ele>
        <time>2012-09-08T13:05:33Z</time>
      </trkpt>
      <trkpt lat="44.87178" lon="3.49522">
        <ele>1154</ele>
        <time>2012-09-08T13:05:44Z</time>
      </trkpt>
      <trkpt lat="44.87165" lon="3.49525">
        <ele>1155</ele>
        <time>2012-09-08T13:05:54Z</time>
      </trkpt>
      <trkpt lat="44.87155" lon="3.49528">
        <ele>1147</ele>
        <time>2012-09-08T13:06:04Z</time>
      </trkpt>
      <trkpt lat="44.87145" lon="3.49533">
        <ele>1152</ele>
        <time>2012-09-08T13:06:14Z</time>
      </trkpt>
      <trkpt lat="44.87132" lon="3.49544">
        <ele>1157</ele>
        <time>2012-09-08T13:06:28Z</time>
      </trkpt>
      <trkpt lat="44.8712" lon="3.4955">
        <ele>1153</ele>
        <time>2012-09-08T13:06:39Z</time>
      </trkpt>
      <trkpt lat="44.87111" lon="3.49551">
        <ele>1155</ele>
        <time>2012-09-08T13:07:33Z</time>
      </trkpt>
      <trkpt lat="44.87096" lon="3.49555">
        <ele>1155</ele>
        <time>2012-09-08T13:07:46Z</time>
      </trkpt>
      <trkpt lat="44.87082" lon="3.49558">
        <ele>1156</ele>
        <time>2012-09-08T13:07:58Z</time>
      </trkpt>
      <trkpt lat="44.8707" lon="3.49563">
        <ele>1151</ele>
        <time>2012-09-08T13:08:10Z</time>
      </trkpt>
      <trkpt lat="44.87059" lon="3.49575">
        <ele>1163</ele>
        <time>2012-09-08T13:08:22Z</time>
      </trkpt>
      <trkpt lat="44.87047" lon="3.49582">
        <ele>1163</ele>
        <time>2012-09-08T13:08:33Z</time>
      </trkpt>
      <trkpt lat="44.87035" lon="3.49579">
        <ele>1159</ele>
        <time>2012-09-08T13:08:44Z</time>
      </trkpt>
      <trkpt lat="44.87025" lon="3.49578">
        <ele>1160</ele>
        <time>2012-09-08T13:08:55Z</time>
      </trkpt>
      <trkpt lat="44.87011" lon="3.49574">
        <ele>1150</ele>
        <time>2012-09-08T13:09:07Z</time>
      </trkpt>
      <trkpt lat="44.86998" lon="3.49571">
        <ele>1154</ele>
        <time>2012-09-08T13:09:18Z</time>
      </trkpt>
      <trkpt lat="44.86983" lon="3.4957">
        <ele>1154</ele>
        <time>2012-09-08T13:09:30Z</time>
      </trkpt>
      <trkpt lat="44.8697" lon="3.49571">
        <ele>1159</ele>
        <time>2012-09-08T13:09:42Z</time>
      </trkpt>
      <trkpt lat="44.86957" lon="3.49573">
        <ele>1155</ele>
        <time>2012-09-08T13:09:54Z</time>
      </trkpt>
      <trkpt lat="44.86944" lon="3.49579">
        <ele>1159</ele>
        <time>2012-09-08T13:10:07Z</time>
      </trkpt>
      <trkpt lat="44.86933" lon="3.49585">
        <ele>1158</ele>
        <time>2012-09-08T13:10:19Z</time>
      </trkpt>
      <trkpt lat="44.86931" lon="3.49589">
        <ele>1170</ele>
        <time>2012-09-08T13:10:42Z</time>
      </trkpt>
      <trkpt lat="44.86918" lon="3.49593">
        <ele>1162</ele>
        <time>2012-09-08T13:10:55Z</time>
      </trkpt>
      <trkpt lat="44.86905" lon="3.49597">
        <ele>1167</ele>
        <time>2012-09-08T13:11:08Z</time>
      </trkpt>
      <trkpt lat="44.8689" lon="3.49603">
        <ele>1166</ele>
        <time>2012-09-08T13:11:21Z</time>
      </trkpt>
      <trkpt lat="44.86877" lon="3.49607">
        <ele>1163</ele>
        <time>2012-09-08T13:11:33Z</time>
      </trkpt>
      <trkpt lat="44.86863" lon="3.49608">
        <ele>1159</ele>
        <time>2012-09-08T13:11:45Z</time>
      </trkpt>
      <trkpt lat="44.8685" lon="3.4961">
        <ele>1163</ele>
        <time>2012-09-08T13:11:55Z</time>
      </trkpt>
      <trkpt lat="44.86836" lon="3.4961">
        <ele>1166</ele>
        <time>2012-09-08T13:12:08Z</time>
      </trkpt>
      <trkpt lat="44.86823" lon="3.49615">
        <ele>1166</ele>
        <time>2012-09-08T13:12:19Z</time>
      </trkpt>
      <trkpt lat="44.86811" lon="3.49619">
        <ele>1166</ele>
        <time>2012-09-08T13:12:30Z</time>
      </trkpt>
      <trkpt lat="44.86798" lon="3.49625">
        <ele>1163</ele>
        <time>2012-09-08T13:12:43Z</time>
      </trkpt>
      <trkpt lat="44.86784" lon="3.49622">
        <ele>1172</ele>
        <time>2012-09-08T13:12:54Z</time>
      </trkpt>
      <trkpt lat="44.86772" lon="3.49617">
        <ele>1174</ele>
        <time>2012-09-08T13:13:04Z</time>
      </trkpt>
      <trkpt lat="44.86763" lon="3.4961">
        <ele>1179</ele>
        <time>2012-09-08T13:13:15Z</time>
      </trkpt>
      <trkpt lat="44.8675" lon="3.49602">
        <ele>1176</ele>
        <time>2012-09-08T13:13:27Z</time>
      </trkpt>
      <trkpt lat="44.86738" lon="3.49596">
        <ele>1167</ele>
        <time>2012-09-08T13:13:43Z</time>
      </trkpt>
      <trkpt lat="44.86729" lon="3.49593">
        <ele>1170</ele>
        <time>2012-09-08T13:13:54Z</time>
      </trkpt>
      <trkpt lat="44.86718" lon="3.4959">
        <ele>1172</ele>
        <time>2012-09-08T13:14:04Z</time>
      </trkpt>
      <trkpt lat="44.86706" lon="3.49589">
        <ele>1173</ele>
        <time>2012-09-08T13:14:15Z</time>
      </trkpt>
      <trkpt lat="44.86693" lon="3.49587">
        <ele>1174</ele>
        <time>2012-09-08T13:14:27Z</time>
      </trkpt>
      <trkpt lat="44.86679" lon="3.49589">
        <ele>1173</ele>
        <time>2012-09-08T13:14:40Z</time>
      </trkpt>
      <trkpt lat="44.86669" lon="3.4959">
        <ele>1171</ele>
        <time>2012-09-08T13:14:51Z</time>
      </trkpt>
      <trkpt lat="44.86656" lon="3.49591">
        <ele>1176</ele>
        <time>2012-09-08T13:15:03Z</time>
      </trkpt>
      <trkpt lat="44.86641" lon="3.49589">
        <ele>1175</ele>
        <time>2012-09-08T13:15:15Z</time>
      </trkpt>
      <trkpt lat="44.86628" lon="3.49589">
        <ele>1176</ele>
        <time>2012-09-08T13:15:27Z</time>
      </trkpt>
      <trkpt lat="44.86616" lon="3.49589">
        <ele>1175</ele>
        <time>2012-09-08T13:15:39Z</time>
      </trkpt>
      <trkpt lat="44.86602" lon="3.49586">
        <ele>1182</ele>
        <time>2012-09-08T13:15:51Z</time>
      </trkpt>
      <trkpt lat="44.86592" lon="3.49584">
        <ele>1182</ele>
        <time>2012-09-08T13:16:01Z</time>
      </trkpt>
      <trkpt lat="44.8658" lon="3.4958">
        <ele>1180</ele>
        <time>2012-09-08T13:16:13Z</time>
      </trkpt>
      <trkpt lat="44.86569" lon="3.49573">
        <ele>1189</ele>
        <time>2012-09-08T13:16:26Z</time>
      </trkpt>
      <trkpt lat="44.86556" lon="3.49563">
        <ele>1187</ele>
        <time>2012-09-08T13:16:36Z</time>
      </trkpt>
      <trkpt lat="44.86545" lon="3.49555">
        <ele>1187</ele>
        <time>2012-09-08T13:16:47Z</time>
      </trkpt>
      <trkpt lat="44.86534" lon="3.49545">
        <ele>1196</ele>
        <time>2012-09-08T13:16:58Z</time>
      </trkpt>
      <trkpt lat="44.86522" lon="3.49535">
        <ele>1190</ele>
        <time>2012-09-08T13:17:09Z</time>
      </trkpt>
      <trkpt lat="44.8651" lon="3.49528">
        <ele>1190</ele>
        <time>2012-09-08T13:17:21Z</time>
      </trkpt>
      <trkpt lat="44.86497" lon="3.49521">
        <ele>1187</ele>
        <time>2012-09-08T13:17:33Z</time>
      </trkpt>
      <trkpt lat="44.86488" lon="3.49517">
        <ele>1188</ele>
        <time>2012-09-08T13:17:43Z</time>
      </trkpt>
      <trkpt lat="44.86474" lon="3.49514">
        <ele>1182</ele>
        <time>2012-09-08T13:17:55Z</time>
      </trkpt>
      <trkpt lat="44.86461" lon="3.49514">
        <ele>1189</ele>
        <time>2012-09-08T13:18:07Z</time>
      </trkpt>
      <trkpt lat="44.86447" lon="3.49513">
        <ele>1185</ele>
        <time>2012-09-08T13:18:18Z</time>
      </trkpt>
      <trkpt lat="44.86434" lon="3.49514">
        <ele>1184</ele>
        <time>2012-09-08T13:18:30Z</time>
      </trkpt>
      <trkpt lat="44.86423" lon="3.49518">
        <ele>1195</ele>
        <time>2012-09-08T13:19:44Z</time>
      </trkpt>
      <trkpt lat="44.86411" lon="3.49518">
        <ele>1194</ele>
        <time>2012-09-08T13:19:54Z</time>
      </trkpt>
      <trkpt lat="44.86402" lon="3.4952">
        <ele>1191</ele>
        <time>2012-09-08T13:20:04Z</time>
      </trkpt>
      <trkpt lat="44.8639" lon="3.49528">
        <ele>1194</ele>
        <time>2012-09-08T13:20:16Z</time>
      </trkpt>
      <trkpt lat="44.86381" lon="3.49534">
        <ele>1184</ele>
        <time>2012-09-08T13:20:26Z</time>
      </trkpt>
      <trkpt lat="44.86372" lon="3.49531">
        <ele>1193</ele>
        <time>2012-09-08T13:20:38Z</time>
      </trkpt>
      <trkpt lat="44.86367" lon="3.49526">
        <ele>1181</ele>
        <time>2012-09-08T13:20:57Z</time>
      </trkpt>
      <trkpt lat="44.86353" lon="3.49522">
        <ele>1177</ele>
        <time>2012-09-08T13:21:08Z</time>
      </trkpt>
      <trkpt lat="44.86339" lon="3.4952">
        <ele>1184</ele>
        <time>2012-09-08T13:21:19Z</time>
      </trkpt>
      <trkpt lat="44.86326" lon="3.49518">
        <ele>1187</ele>
        <time>2012-09-08T13:21:30Z</time>
      </trkpt>
      <trkpt lat="44.86316" lon="3.49518">
        <ele>1173</ele>
        <time>2012-09-08T13:21:41Z</time>
      </trkpt>
      <trkpt lat="44.86304" lon="3.4952">
        <ele>1182</ele>
        <time>2012-09-08T13:21:53Z</time>
      </trkpt>
      <trkpt lat="44.86291" lon="3.4952">
        <ele>1171</ele>
        <time>2012-09-08T13:22:03Z</time>
      </trkpt>
      <trkpt lat="44.86276" lon="3.49514">
        <ele>1177</ele>
        <time>2012-09-08T13:22:16Z</time>
      </trkpt>
      <trkpt lat="44.86266" lon="3.49509">
        <ele>1174</ele>
        <time>2012-09-08T13:22:27Z</time>
      </trkpt>
      <trkpt lat="44.86256" lon="3.49504">
        <ele>1179</ele>
        <time>2012-09-08T13:22:37Z</time>
      </trkpt>
      <trkpt lat="44.86243" lon="3.49501">
        <ele>1177</ele>
        <time>2012-09-08T13:22:47Z</time>
      </trkpt>
      <trkpt lat="44.8623" lon="3.49497">
        <ele>1178</ele>
        <time>2012-09-08T13:22:59Z</time>
      </trkpt>
      <trkpt lat="44.86219" lon="3.49487">
        <ele>1171</ele>
        <time>2012-09-08T13:23:12Z</time>
      </trkpt>
      <trkpt lat="44.8621" lon="3.49476">
        <ele>1175</ele>
        <time>2012-09-08T13:23:22Z</time>
      </trkpt>
      <trkpt lat="44.86202" lon="3.49462">
        <ele>1181</ele>
        <time>2012-09-08T13:23:33Z</time>
      </trkpt>
      <trkpt lat="44.86197" lon="3.49452">
        <ele>1185</ele>
        <time>2012-09-08T13:23:44Z</time>
      </trkpt>
      <trkpt lat="44.86192" lon="3.49437">
        <ele>1174</ele>
        <time>2012-09-08T13:23:57Z</time>
      </trkpt>
      <trkpt lat="44.86182" lon="3.4942">
        <ele>1172</ele>
        <time>2012-09-08T13:24:10Z</time>
      </trkpt>
      <trkpt lat="44.86174" lon="3.49409">
        <ele>1171</ele>
        <time>2012-09-08T13:24:21Z</time>
      </trkpt>
      <trkpt lat="44.86162" lon="3.494">
        <ele>1180</ele>
        <time>2012-09-08T13:24:32Z</time>
      </trkpt>
      <trkpt lat="44.86148" lon="3.49391">
        <ele>1182</ele>
        <time>2012-09-08T13:24:44Z</time>
      </trkpt>
      <trkpt lat="44.86135" lon="3.4938">
        <ele>1176</ele>
        <time>2012-09-08T13:24:57Z</time>
      </trkpt>
      <trkpt lat="44.86124" lon="3.4937">
        <ele>1175</ele>
        <time>2012-09-08T13:25:09Z</time>
      </trkpt>
      <trkpt lat="44.86113" lon="3.49358">
        <ele>1176</ele>
        <time>2012-09-08T13:25:21Z</time>
      </trkpt>
      <trkpt lat="44.86101" lon="3.49348">
        <ele>1176</ele>
        <time>2012-09-08T13:25:32Z</time>
      </trkpt>
      <trkpt lat="44.8609" lon="3.49333">
        <ele>1173</ele>
        <time>2012-09-08T13:25:43Z</time>
      </trkpt>
      <trkpt lat="44.86083" lon="3.49318">
        <ele>1175</ele>
        <time>2012-09-08T13:25:54Z</time>
      </trkpt>
      <trkpt lat="44.86078" lon="3.49306">
        <ele>1170</ele>
        <time>2012-09-08T13:26:04Z</time>
      </trkpt>
      <trkpt lat="44.86074" lon="3.49287">
        <ele>1175</ele>
        <time>2012-09-08T13:26:16Z</time>
      </trkpt>
      <trkpt lat="44.86065" lon="3.49273">
        <ele>1171</ele>
        <time>2012-09-08T13:26:28Z</time>
      </trkpt>
      <trkpt lat="44.86057" lon="3.4926">
        <ele>1180</ele>
        <time>2012-09-08T13:26:40Z</time>
      </trkpt>
      <trkpt lat="44.86045" lon="3.49251">
        <ele>1184</ele>
        <time>2012-09-08T13:26:50Z</time>
      </trkpt>
      <trkpt lat="44.86036" lon="3.49241">
        <ele>1179</ele>
        <time>2012-09-08T13:27:01Z</time>
      </trkpt>
      <trkpt lat="44.86025" lon="3.49231">
        <ele>1185</ele>
        <time>2012-09-08T13:27:11Z</time>
      </trkpt>
      <trkpt lat="44.86014" lon="3.49221">
        <ele>1180</ele>
        <time>2012-09-08T13:27:23Z</time>
      </trkpt>
      <trkpt lat="44.86004" lon="3.49211">
        <ele>1173</ele>
        <time>2012-09-08T13:27:34Z</time>
      </trkpt>
      <trkpt lat="44.85994" lon="3.492">
        <ele>1181</ele>
        <time>2012-09-08T13:27:45Z</time>
      </trkpt>
      <trkpt lat="44.85984" lon="3.49187">
        <ele>1176</ele>
        <time>2012-09-08T13:27:55Z</time>
      </trkpt>
      <trkpt lat="44.85975" lon="3.49176">
        <ele>1178</ele>
        <time>2012-09-08T13:28:05Z</time>
      </trkpt>
      <trkpt lat="44.85964" lon="3.49166">
        <ele>1175</ele>
        <time>2012-09-08T13:28:16Z</time>
      </trkpt>
      <trkpt lat="44.85954" lon="3.49155">
        <ele>1174</ele>
        <time>2012-09-08T13:28:28Z</time>
      </trkpt>
      <trkpt lat="44.85943" lon="3.49137">
        <ele>1183</ele>
        <time>2012-09-08T13:28:39Z</time>
      </trkpt>
      <trkpt lat="44.85942" lon="3.4912">
        <ele>1169</ele>
        <time>2012-09-08T13:28:51Z</time>
      </trkpt>
      <trkpt lat="44.85946" lon="3.49102">
        <ele>1176</ele>
        <time>2012-09-08T13:29:03Z</time>
      </trkpt>
      <trkpt lat="44.85954" lon="3.49083">
        <ele>1180</ele>
        <time>2012-09-08T13:29:16Z</time>
      </trkpt>
      <trkpt lat="44.85962" lon="3.49074">
        <ele>1172</ele>
        <time>2012-09-08T13:29:26Z</time>
      </trkpt>
      <trkpt lat="44.85971" lon="3.49062">
        <ele>1169</ele>
        <time>2012-09-08T13:29:37Z</time>
      </trkpt>
      <trkpt lat="44.85981" lon="3.49053">
        <ele>1171</ele>
        <time>2012-09-08T13:29:50Z</time>
      </trkpt>
      <trkpt lat="44.85987" lon="3.4904">
        <ele>1179</ele>
        <time>2012-09-08T13:30:04Z</time>
      </trkpt>
      <trkpt lat="44.85991" lon="3.4904">
        <ele>1174</ele>
        <time>2012-09-08T13:30:19Z</time>
      </trkpt>
      <trkpt lat="44.86003" lon="3.49042">
        <ele>1177</ele>
        <time>2012-09-08T13:30:29Z</time>
      </trkpt>
      <trkpt lat="44.86011" lon="3.49035">
        <ele>1175</ele>
        <time>2012-09-08T13:30:40Z</time>
      </trkpt>
      <trkpt lat="44.86013" lon="3.49017">
        <ele>1178</ele>
        <time>2012-09-08T13:31:26Z</time>
      </trkpt>
      <trkpt lat="44.86012" lon="3.48997">
        <ele>1180</ele>
        <time>2012-09-08T13:31:37Z</time>
      </trkpt>
      <trkpt lat="44.86013" lon="3.48977">
        <ele>1178</ele>
        <time>2012-09-08T13:31:49Z</time>
      </trkpt>
      <trkpt lat="44.86016" lon="3.4896">
        <ele>1186</ele>
        <time>2012-09-08T13:32:00Z</time>
      </trkpt>
      <trkpt lat="44.86018" lon="3.48945">
        <ele>1186</ele>
        <time>2012-09-08T13:32:10Z</time>
      </trkpt>
      <trkpt lat="44.86021" lon="3.48925">
        <ele>1190</ele>
        <time>2012-09-08T13:32:22Z</time>
      </trkpt>
      <trkpt lat="44.86025" lon="3.48906">
        <ele>1180</ele>
        <time>2012-09-08T13:32:33Z</time>
      </trkpt>
      <trkpt lat="44.86026" lon="3.48888">
        <ele>1183</ele>
        <time>2012-09-08T13:32:44Z</time>
      </trkpt>
      <trkpt lat="44.86028" lon="3.48871">
        <ele>1175</ele>
        <time>2012-09-08T13:32:56Z</time>
      </trkpt>
      <trkpt lat="44.86034" lon="3.48854">
        <ele>1180</ele>
        <time>2012-09-08T13:33:07Z</time>
      </trkpt>
      <trkpt lat="44.86034" lon="3.4883">
        <ele>1172</ele>
        <time>2012-09-08T13:33:19Z</time>
      </trkpt>
      <trkpt lat="44.86037" lon="3.48816">
        <ele>1177</ele>
        <time>2012-09-08T13:33:29Z</time>
      </trkpt>
      <trkpt lat="44.86047" lon="3.48798">
        <ele>1184</ele>
        <time>2012-09-08T13:33:42Z</time>
      </trkpt>
      <trkpt lat="44.86057" lon="3.48783">
        <ele>1184</ele>
        <time>2012-09-08T13:33:54Z</time>
      </trkpt>
      <trkpt lat="44.86068" lon="3.48774">
        <ele>1185</ele>
        <time>2012-09-08T13:34:07Z</time>
      </trkpt>
      <trkpt lat="44.8608" lon="3.48766">
        <ele>1192</ele>
        <time>2012-09-08T13:34:19Z</time>
      </trkpt>
      <trkpt lat="44.86095" lon="3.48755">
        <ele>1188</ele>
        <time>2012-09-08T13:34:32Z</time>
      </trkpt>
      <trkpt lat="44.86106" lon="3.48745">
        <ele>1186</ele>
        <time>2012-09-08T13:34:44Z</time>
      </trkpt>
      <trkpt lat="44.86114" lon="3.48731">
        <ele>1183</ele>
        <time>2012-09-08T13:34:54Z</time>
      </trkpt>
      <trkpt lat="44.86116" lon="3.48712">
        <ele>1186</ele>
        <time>2012-09-08T13:35:05Z</time>
      </trkpt>
      <trkpt lat="44.86122" lon="3.48705">
        <ele>1181</ele>
        <time>2012-09-08T13:35:29Z</time>
      </trkpt>
      <trkpt lat="44.86128" lon="3.48703">
        <ele>1179</ele>
        <time>2012-09-08T13:35:57Z</time>
      </trkpt>
      <trkpt lat="44.86134" lon="3.48706">
        <ele>1180</ele>
        <time>2012-09-08T13:36:09Z</time>
      </trkpt>
      <trkpt lat="44.86126" lon="3.487">
        <ele>1194</ele>
        <time>2012-09-08T13:36:25Z</time>
      </trkpt>
      <trkpt lat="44.86123" lon="3.48703">
        <ele>1194</ele>
        <time>2012-09-08T13:37:07Z</time>
      </trkpt>
      <trkpt lat="44.86119" lon="3.48703">
        <ele>1216</ele>
        <time>2012-09-08T13:37:22Z</time>
      </trkpt>
      <trkpt lat="44.86116" lon="3.48704">
        <ele>1203</ele>
        <time>2012-09-08T13:37:39Z</time>
      </trkpt>
      <trkpt lat="44.86103" lon="3.48709">
        <ele>1184</ele>
        <time>2012-09-08T13:38:43Z</time>
      </trkpt>
      <trkpt lat="44.86108" lon="3.48723">
        <ele>1189</ele>
        <time>2012-09-08T13:38:53Z</time>
      </trkpt>
      <trkpt lat="44.8607" lon="3.48776">
        <ele>1184</ele>
        <time>2012-09-08T13:39:04Z</time>
      </trkpt>
      <trkpt lat="44.86025" lon="3.48894">
        <ele>1187</ele>
        <time>2012-09-08T13:39:14Z</time>
      </trkpt>
      <trkpt lat="44.8601" lon="3.49032">
        <ele>1184</ele>
        <time>2012-09-08T13:39:25Z</time>
      </trkpt>
      <trkpt lat="44.85995" lon="3.49029">
        <ele>1187</ele>
        <time>2012-09-08T13:40:05Z</time>
      </trkpt>
    </trkseg>
  </trk>
</gpx>